UA1088 / N1902U 7700 Squawk Report (27th of November, 2022)

Aircraft A320 Reg No. N1902U Age 16 years old
Model A320 Jet engines 2 First flight 24-02-06
Registered 27-11-17 Rollout 02-06 Delivered 17-03-06
Construction No. 2714 Line No. N/A Series 232
ADSHEX A16ADC Airline name United Airlines Owner Singapore Aircraft Leasing Enterprise
Airfield based Chicago O`Hare~IL~N First tracked N/A

Flight history for N1902U

Route Flight No Date Playback
Savannah Hilton Head Intl (SAV) - Newark Liberty Intl (EWR) UA2680 2023-02-07 20:41:00
Newark Liberty Intl (EWR) - Savannah Hilton Head Intl (SAV) UA1330 2023-02-07 18:38:00
Orlando Intl (MCO) - Newark Liberty Intl (EWR) UA2162 2023-02-05 00:51:00
George Bush Intercontinental (IAH) - Orlando Intl (MCO) UA543 2023-02-04 22:18:00
Dallas Fort Worth (DFW) - George Bush Intercontinental (IAH) UA1583 2023-02-03 19:06:00
George Bush Intercontinental (IAH) - Dallas Fort Worth (DFW) UA1047 2023-02-03 18:07:00
Licenciado Benito Juarez (MEX) - George Bush Intercontinental (IAH) UA1838 2023-02-03 02:01:00
George Bush Intercontinental (IAH) - Licenciado Benito Juarez (MEX) UA1090 2023-02-02 22:48:00
Ronald Reagan Washington Natl (DCA) - George Bush Intercontinental (IAH) UA1678 2023-02-02 20:43:00
San Diego Intl (SAN) - George Bush Intercontinental (IAH) - Ronald Reagan Washington Natl (DCA) UA2472 2023-02-02 01:30:00
La Guardia (LGA) - George Bush Intercontinental (IAH) UA1952 2023-02-01 23:11:00
George Bush Intercontinental (IAH) - La Guardia (LGA) UA2635 2023-02-01 17:33:00
McCarran Intl (LAS) - George Bush Intercontinental (IAH) UA1541 2023-02-01 13:23:00
George Bush Intercontinental (IAH) - McCarran Intl (LAS) UA2086 2023-02-01 09:28:00
Miami Intl (MIA) - George Bush Intercontinental (IAH) UA1987 2023-02-01 00:33:00
George Bush Intercontinental (IAH) - Miami Intl (MIA) UA2217 2023-01-31 18:22:00
Jacksonville Intl (JAX) - George Bush Intercontinental (IAH) UA1383 2023-01-31 16:10:00
George Bush Intercontinental (IAH) - Jacksonville Intl (JAX) UA1226 2023-01-31 12:01:00
Tampa Intl (TPA) - George Bush Intercontinental (IAH) UA1696 2023-01-31 02:20:00
Chicago Ohare Intl (ORD) - Tampa Intl (TPA) UA1601 2023-01-30 22:38:00
Time Lat Lon Altitude Heading Speed Vertical Rate
2022-11-27 20:10:22 GMT 19.441269 -99.070023 0 239 15 0
2022-11-27 20:10:12 GMT 19.441610 -99.069427 0 239 18 0
2022-11-27 20:09:40 GMT 19.442848 -99.067200 0 239 15 0
2022-11-27 20:09:18 GMT 19.443684 -99.065727 0 239 16 0
2022-11-27 20:08:47 GMT 19.444626 -99.063911 0 281 12 0
2022-11-27 20:08:40 GMT 19.444519 -99.063545 0 295 10 0
2022-11-27 20:08:28 GMT 19.444336 -99.063141 0 292 8 0
2022-11-27 20:08:18 GMT 19.444241 -99.062820 0 289 9 0
2022-11-27 20:08:08 GMT 19.444019 -99.062271 0 295 14 0
2022-11-27 20:07:58 GMT 19.443624 -99.061737 0 337 16 0
2022-11-27 20:07:48 GMT 19.442711 -99.061646 0 5 20 0
2022-11-27 20:07:37 GMT 19.441610 -99.061913 0 25 31 0
2022-11-27 20:07:27 GMT 19.440376 -99.062645 0 33 31 0
2022-11-27 20:07:16 GMT 19.439266 -99.064102 0 59 57 0
2022-11-27 20:07:06 GMT 19.437513 -99.067230 6,975 59 92 0
2022-11-27 20:06:55 GMT 19.434721 -99.072258 6,975 59 142 64
2022-11-27 20:03:32 GMT 19.373337 -99.220665 9,425 147 189 -896
2022-11-27 20:03:31 GMT 19.374893 -99.221748 9,450 148 190 -960
2022-11-27 20:03:29 GMT 19.375601 -99.222176 9,475 149 192 -1152
2022-11-27 20:03:27 GMT 19.377045 -99.223122 9,500 149 191 -1344
2022-11-27 20:03:26 GMT 19.378647 -99.224098 9,550 149 191 -1344
2022-11-27 20:03:24 GMT 19.380161 -99.225067 9,600 149 193 -1280
2022-11-27 20:03:22 GMT 19.381418 -99.225822 9,650 149 191 -1216
2022-11-27 20:03:20 GMT 19.382956 -99.226814 9,675 149 192 -1216
2022-11-27 20:03:19 GMT 19.383728 -99.227287 9,700 149 192 -1216
2022-11-27 20:03:18 GMT 19.385422 -99.228317 9,750 149 192 -1216
2022-11-27 20:03:16 GMT 19.386354 -99.228912 9,775 149 192 -1088
2022-11-27 20:03:14 GMT 19.387705 -99.229767 9,800 149 193 -960
2022-11-27 20:03:13 GMT 19.388489 -99.230278 9,825 149 193 -960
2022-11-27 20:03:12 GMT 19.389193 -99.230713 9,825 149 192 -1088
2022-11-27 20:03:10 GMT 19.390961 -99.231804 9,875 148 192 -1152
2022-11-27 20:03:09 GMT 19.391706 -99.232307 9,900 149 193 -1152
2022-11-27 20:03:07 GMT 19.393244 -99.233261 9,950 148 193 -1280
2022-11-27 20:03:06 GMT 19.393936 -99.233711 9,975 148 193 -1408
2022-11-27 20:03:05 GMT 19.395338 -99.234612 10,000 148 193 -1728
2022-11-27 20:03:03 GMT 19.396130 -99.235107 10,050 148 193 -1984
2022-11-27 20:03:01 GMT 19.397644 -99.236115 10,100 147 194 -2176
2022-11-27 20:03:00 GMT 19.398697 -99.236801 10,150 147 193 -2112
2022-11-27 20:02:59 GMT 19.400133 -99.237801 10,225 146 193 -2048
2022-11-27 20:02:56 GMT 19.401529 -99.238800 10,275 146 193 -1856
2022-11-27 20:02:54 GMT 19.403206 -99.239952 10,350 145 197 -1280
2022-11-27 20:02:53 GMT 19.403904 -99.240448 10,350 145 197 -1152
2022-11-27 20:02:51 GMT 19.405254 -99.241447 10,400 145 197 -576
2022-11-27 20:02:49 GMT 19.406616 -99.242447 10,400 145 199 -512
2022-11-27 20:02:47 GMT 19.407768 -99.243294 10,425 144 201 -704
2022-11-27 20:02:46 GMT 19.409210 -99.244347 10,450 144 203 -768
2022-11-27 20:02:41 GMT 19.412018 -99.246414 10,500 146 205 -896
2022-11-27 20:02:40 GMT 19.412748 -99.246895 10,500 147 206 -960
2022-11-27 20:02:35 GMT 19.417450 -99.249840 10,550 153 213 -704
2022-11-27 20:02:32 GMT 19.420942 -99.251587 10,600 156 218 -768
2022-11-27 20:02:30 GMT 19.422318 -99.252205 10,600 160 218 -576
2022-11-27 20:02:29 GMT 19.423456 -99.252640 10,625 162 220 -448
2022-11-27 20:02:28 GMT 19.425522 -99.253281 10,625 169 222 -64
2022-11-27 20:02:25 GMT 19.428530 -99.253883 10,650 173 226 -64
2022-11-27 20:02:23 GMT 19.429688 -99.254021 10,650 175 225 -64
2022-11-27 20:02:21 GMT 19.431885 -99.254120 10,650 179 227 -128
2022-11-27 20:02:20 GMT 19.432859 -99.254135 10,650 182 227 -128
2022-11-27 20:02:19 GMT 19.433807 -99.254120 10,650 184 228 -128
2022-11-27 20:02:18 GMT 19.436117 -99.253937 10,675 187 226 -128
2022-11-27 20:02:16 GMT 19.437286 -99.253822 10,675 189 226 -192
2022-11-27 20:02:13 GMT 19.439051 -99.253532 10,675 191 226 -384
2022-11-27 20:02:12 GMT 19.440168 -99.253334 10,700 192 225 -512
2022-11-27 20:02:11 GMT 19.442776 -99.252838 10,725 191 226 -1024
2022-11-27 20:02:08 GMT 19.445343 -99.252304 10,750 191 227 -1024
2022-11-27 20:02:06 GMT 19.446442 -99.252060 10,775 191 227 -1024
2022-11-27 20:02:05 GMT 19.448547 -99.251663 10,800 191 224 -1088
2022-11-27 20:02:03 GMT 19.449711 -99.251434 10,825 192 225 -1024
2022-11-27 20:02:01 GMT 19.451797 -99.251030 10,850 191 228 -1088
2022-11-27 20:02:00 GMT 19.452923 -99.250786 10,875 191 227 -1472
2022-11-27 20:01:59 GMT 19.453857 -99.250587 10,900 191 227 -1536
2022-11-27 20:01:57 GMT 19.456238 -99.250145 10,975 191 229 -1472
2022-11-27 20:01:55 GMT 19.458206 -99.249756 11,000 192 229 -1280
2022-11-27 20:01:54 GMT 19.459162 -99.249542 11,025 192 230 -768
2022-11-27 20:01:52 GMT 19.461685 -99.249016 11,025 192 230 -512
2022-11-27 20:01:51 GMT 19.462738 -99.248817 11,050 192 230 -576
2022-11-27 20:01:50 GMT 19.463379 -99.248672 11,050 192 229 -768
2022-11-27 20:01:49 GMT 19.465446 -99.248238 11,100 192 229 -1408
2022-11-27 20:01:47 GMT 19.466629 -99.247986 11,125 192 229 -1536
2022-11-27 20:01:45 GMT 19.468704 -99.247543 11,175 192 229 -1152
2022-11-27 20:01:43 GMT 19.471172 -99.247040 11,200 192 227 -448
2022-11-27 20:01:42 GMT 19.472103 -99.246841 11,200 192 227 -640
2022-11-27 20:01:41 GMT 19.473360 -99.246544 11,225 192 227 -640
2022-11-27 20:01:39 GMT 19.475327 -99.246124 11,250 192 226 -768
2022-11-27 20:01:38 GMT 19.477596 -99.245590 11,275 193 227 -1152
2022-11-27 20:01:36 GMT 19.478119 -99.245483 11,300 193 227 -1152
2022-11-27 20:01:35 GMT 19.480682 -99.244896 11,325 193 227 -1152
2022-11-27 20:01:33 GMT 19.481735 -99.244652 11,350 193 227 -1088
2022-11-27 20:01:32 GMT 19.482742 -99.244453 11,375 193 227 -960
2022-11-27 20:01:30 GMT 19.484711 -99.243965 11,400 194 228 -960
2022-11-27 20:01:29 GMT 19.485764 -99.243721 11,425 194 228 -960
2022-11-27 20:01:27 GMT 19.488117 -99.243095 11,450 194 228 -1152
2022-11-27 20:01:25 GMT 19.489380 -99.242790 11,500 194 228 -1408
2022-11-27 20:01:23 GMT 19.491211 -99.242294 11,525 194 229 -1472
2022-11-27 20:01:22 GMT 19.492447 -99.241997 11,550 194 229 -1344
2022-11-27 20:01:21 GMT 19.494232 -99.241562 11,575 194 229 -1280
2022-11-27 20:01:19 GMT 19.495239 -99.241264 11,600 194 229 -1344
2022-11-27 20:01:18 GMT 19.497437 -99.240730 11,650 194 229 -1152
2022-11-27 20:01:16 GMT 19.499382 -99.240204 11,700 194 229 -1216
2022-11-27 20:01:13 GMT 19.502518 -99.239403 11,750 194 229 -960
2022-11-27 20:01:11 GMT 19.503431 -99.239204 11,750 194 228 -960
2022-11-27 20:01:10 GMT 19.505808 -99.238602 11,800 193 228 -960
2022-11-27 20:01:08 GMT 19.506645 -99.238403 11,825 193 228 -960
2022-11-27 20:01:07 GMT 19.508698 -99.237930 11,850 192 228 -896
2022-11-27 20:01:03 GMT 19.511208 -99.237457 11,875 189 227 -896
2022-11-27 20:01:02 GMT 19.513115 -99.237152 11,900 189 228 -960
2022-11-27 20:01:01 GMT 19.514977 -99.236908 11,950 187 229 -896
2022-11-27 20:00:59 GMT 19.517120 -99.236710 11,975 183 230 -896
2022-11-27 20:00:57 GMT 19.518284 -99.236656 11,975 180 231 -768
2022-11-27 20:00:55 GMT 19.520517 -99.236603 12,025 177 230 -896
2022-11-27 20:00:54 GMT 19.521698 -99.236710 12,025 172 230 -1024
2022-11-27 20:00:53 GMT 19.524010 -99.237007 12,075 167 230 -1088
2022-11-27 20:00:51 GMT 19.524948 -99.237244 12,100 165 230 -1088
2022-11-27 20:00:50 GMT 19.526001 -99.237488 12,125 163 230 -1216
2022-11-27 20:00:48 GMT 19.528152 -99.238174 12,150 159 230 -960
2022-11-27 20:00:47 GMT 19.529036 -99.238556 12,175 157 229 -960
2022-11-27 20:00:45 GMT 19.530899 -99.239357 12,200 154 229 -1152
2022-11-27 20:00:44 GMT 19.531998 -99.239891 12,225 152 229 -1152
2022-11-27 20:00:43 GMT 19.533039 -99.240448 12,250 150 229 -1152
2022-11-27 20:00:42 GMT 19.534809 -99.241447 12,275 147 230 -1024
2022-11-27 20:00:40 GMT 19.535980 -99.242249 12,300 146 229 -1024
2022-11-27 20:00:39 GMT 19.537647 -99.243446 12,325 144 230 -1216
2022-11-27 20:00:37 GMT 19.538626 -99.244148 12,350 143 230 -1216
2022-11-27 20:00:36 GMT 19.539465 -99.244797 12,375 143 230 -1216
2022-11-27 20:00:34 GMT 19.541290 -99.246223 12,425 143 230 -1216
2022-11-27 20:00:33 GMT 19.542164 -99.246895 12,450 143 231 -1280
2022-11-27 20:00:31 GMT 19.543886 -99.248238 12,500 143 231 -1152
2022-11-27 20:00:30 GMT 19.544910 -99.249039 12,525 143 231 -1216
2022-11-27 20:00:28 GMT 19.546646 -99.250389 12,550 143 230 -1216
2022-11-27 20:00:26 GMT 19.548294 -99.251663 12,600 143 230 -1216
2022-11-27 20:00:24 GMT 19.550034 -99.252991 12,625 143 230 -1088
2022-11-27 20:00:23 GMT 19.551893 -99.254433 12,675 143 229 -1088
2022-11-27 20:00:20 GMT 19.552591 -99.254982 12,700 143 230 -1088
2022-11-27 20:00:19 GMT 19.553476 -99.255630 12,700 143 229 -1024
2022-11-27 20:00:17 GMT 19.555527 -99.257256 12,750 143 229 -1024
2022-11-27 20:00:16 GMT 19.556396 -99.257896 12,775 143 229 -1088
2022-11-27 20:00:15 GMT 19.558084 -99.259277 12,800 143 230 -1152
2022-11-27 20:00:12 GMT 19.561523 -99.261917 12,875 143 229 -1152
2022-11-27 20:00:10 GMT 19.561523 -99.261917 12,875 143 230 -1152
2022-11-27 20:00:09 GMT 19.563354 -99.263336 12,900 143 230 -1024
2022-11-27 20:00:07 GMT 19.564224 -99.263977 12,925 143 231 -1024
2022-11-27 20:00:05 GMT 19.565872 -99.265251 12,950 143 231 -1152
2022-11-27 20:00:03 GMT 19.567612 -99.266624 13,000 143 232 -1216
2022-11-27 20:00:01 GMT 19.569304 -99.267967 13,050 143 232 -1280
2022-11-27 19:59:59 GMT 19.571320 -99.269516 13,075 143 232 -1344
2022-11-27 19:59:57 GMT 19.573654 -99.271332 13,150 143 233 -1216
2022-11-27 19:59:55 GMT 19.575075 -99.272408 13,175 143 233 -1408
2022-11-27 19:59:54 GMT 19.576355 -99.273445 13,225 143 234 -1472
2022-11-27 19:59:52 GMT 19.578552 -99.275162 13,275 143 234 -1536
2022-11-27 19:59:50 GMT 19.578987 -99.275505 13,275 143 234 -1472
2022-11-27 19:59:49 GMT 19.579870 -99.276154 13,300 144 234 -1408
2022-11-27 19:59:46 GMT 19.583496 -99.278984 13,400 143 235 -1344
2022-11-27 19:59:44 GMT 19.584366 -99.279671 13,425 143 235 -1344
2022-11-27 19:59:42 GMT 19.586203 -99.281097 13,475 144 235 -1472
2022-11-27 19:59:41 GMT 19.587179 -99.281799 13,500 144 235 -1472
2022-11-27 19:59:39 GMT 19.588852 -99.283104 13,550 144 235 -1408
2022-11-27 19:59:38 GMT 19.589693 -99.283699 13,550 144 235 -1280
2022-11-27 19:59:35 GMT 19.592331 -99.285706 13,625 144 233 -1088
2022-11-27 19:59:34 GMT 19.593325 -99.286392 13,650 145 232 -768
2022-11-27 19:59:32 GMT 19.595186 -99.287743 13,650 146 233 -128
2022-11-27 19:59:30 GMT 19.597961 -99.289581 13,650 150 233 -128
2022-11-27 19:59:28 GMT 19.598877 -99.290115 13,650 152 233 -64
2022-11-27 19:59:26 GMT 19.600821 -99.291191 13,650 154 233 -64
2022-11-27 19:59:25 GMT 19.601669 -99.291641 13,650 156 233 -64
2022-11-27 19:59:22 GMT 19.604870 -99.293037 13,650 159 233 64
2022-11-27 19:59:21 GMT 19.605894 -99.293434 13,650 160 233 64
2022-11-27 19:59:20 GMT 19.607941 -99.294235 13,650 160 234 -64
2022-11-27 19:59:18 GMT 19.608948 -99.294579 13,650 160 234 -128
2022-11-27 19:59:17 GMT 19.609991 -99.294983 13,650 160 234 -128
2022-11-27 19:59:15 GMT 19.611853 -99.295685 13,675 160 233 -64
2022-11-27 19:59:14 GMT 19.613901 -99.296432 13,650 161 233 0
2022-11-27 19:59:12 GMT 19.615128 -99.296883 13,675 161 233 -128
2022-11-27 19:59:11 GMT 19.616135 -99.297226 13,675 160 234 64
2022-11-27 19:59:09 GMT 19.618103 -99.297966 13,650 160 234 128
2022-11-27 19:59:08 GMT 19.619207 -99.298378 13,650 160 235 0
2022-11-27 19:59:05 GMT 19.623259 -99.299927 13,650 160 235 0
2022-11-27 19:59:03 GMT 19.624374 -99.300316 13,650 160 235 64
2022-11-27 19:59:02 GMT 19.626343 -99.301056 13,650 160 235 128
2022-11-27 19:59:00 GMT 19.627167 -99.301399 13,650 160 236 64
2022-11-27 19:58:58 GMT 19.629547 -99.302284 13,650 160 236 64
2022-11-27 19:58:57 GMT 19.630659 -99.302727 13,650 160 237 0
2022-11-27 19:58:56 GMT 19.632429 -99.303375 13,650 160 239 -64
2022-11-27 19:58:54 GMT 19.633621 -99.303802 13,650 160 239 64
2022-11-27 19:58:52 GMT 19.635681 -99.304588 13,650 160 239 128
2022-11-27 19:58:50 GMT 19.639923 -99.306122 13,650 160 240 192
2022-11-27 19:58:48 GMT 19.639923 -99.306122 13,625 160 240 192
2022-11-27 19:58:45 GMT 19.642530 -99.307068 13,625 161 240 128
2022-11-27 19:58:44 GMT 19.644020 -99.307617 13,625 161 239 -128
2022-11-27 19:58:42 GMT 19.647583 -99.308899 13,625 160 239 128
2022-11-27 19:58:39 GMT 19.648636 -99.309296 13,625 160 239 0
2022-11-27 19:58:38 GMT 19.650192 -99.309883 13,625 160 239 0
2022-11-27 19:58:36 GMT 19.651886 -99.310471 13,625 160 238 64
2022-11-27 19:58:35 GMT 19.653030 -99.310867 13,625 160 238 64
2022-11-27 19:58:33 GMT 19.655136 -99.311646 13,625 161 237 0
2022-11-27 19:58:32 GMT 19.655960 -99.311943 13,625 160 237 0
2022-11-27 19:58:31 GMT 19.658451 -99.312859 13,625 160 236 64
2022-11-27 19:58:29 GMT 19.659393 -99.313217 13,625 160 236 0
2022-11-27 19:58:28 GMT 19.660545 -99.313606 13,625 160 235 0
2022-11-27 19:58:26 GMT 19.662781 -99.314491 13,650 160 234 -64
2022-11-27 19:58:25 GMT 19.665939 -99.315620 13,650 160 231 64
2022-11-27 19:58:23 GMT 19.665939 -99.315620 13,650 161 227 192
2022-11-27 19:58:20 GMT 19.668507 -99.316559 13,650 161 227 128
2022-11-27 19:58:19 GMT 19.670105 -99.317139 13,650 161 228 0
2022-11-27 19:58:18 GMT 19.670883 -99.317436 13,650 161 228 -128
2022-11-27 19:58:16 GMT 19.673021 -99.318207 13,650 161 228 -64
2022-11-27 19:58:14 GMT 19.674513 -99.318756 13,650 161 228 -64
2022-11-27 19:58:13 GMT 19.675827 -99.319199 13,650 161 227 -384
2022-11-27 19:58:11 GMT 19.678190 -99.320053 13,675 161 227 -448
2022-11-27 19:58:09 GMT 19.680239 -99.320747 13,700 162 228 -640
2022-11-27 19:58:07 GMT 19.682236 -99.321411 13,725 161 229 -896
2022-11-27 19:58:06 GMT 19.683243 -99.321754 13,725 161 229 -960
2022-11-27 19:58:04 GMT 19.685257 -99.322487 13,775 161 229 -1024
2022-11-27 19:58:02 GMT 19.687080 -99.323097 13,800 161 229 -1088
2022-11-27 19:58:01 GMT 19.688105 -99.323448 13,825 161 229 -1088
2022-11-27 19:57:59 GMT 19.690155 -99.324158 13,850 161 229 -1216
2022-11-27 19:57:58 GMT 19.691162 -99.324501 13,875 161 229 -1344
2022-11-27 19:57:57 GMT 19.692062 -99.324844 13,900 161 229 -1472
2022-11-27 19:57:56 GMT 19.695099 -99.325874 13,975 161 229 -1664
2022-11-27 19:57:54 GMT 19.696106 -99.326263 14,000 161 229 -1856
2022-11-27 19:57:51 GMT 19.699324 -99.327393 14,100 161 228 -1792
2022-11-27 19:57:49 GMT 19.700441 -99.327744 14,150 161 228 -1792
2022-11-27 19:57:48 GMT 19.702257 -99.328392 14,200 161 229 -1664
2022-11-27 19:57:46 GMT 19.703281 -99.328789 14,225 161 229 -1728
2022-11-27 19:57:45 GMT 19.705376 -99.329536 14,275 160 228 -1984
2022-11-27 19:57:43 GMT 19.706268 -99.329842 14,325 160 228 -2240
2022-11-27 19:57:42 GMT 19.708681 -99.330734 14,400 160 226 -2496
2022-11-27 19:57:40 GMT 19.711149 -99.331688 14,500 160 226 -2432
2022-11-27 19:57:37 GMT 19.712126 -99.332039 14,550 160 226 -2368
2022-11-27 19:57:36 GMT 19.713524 -99.332588 14,575 160 225 -2304
2022-11-27 19:57:35 GMT 19.714594 -99.332985 14,650 160 225 -2176
2022-11-27 19:57:32 GMT 19.716549 -99.333733 14,700 160 224 -2112
2022-11-27 19:57:31 GMT 19.717525 -99.334137 14,750 160 224 -2048
2022-11-27 19:57:29 GMT 19.719435 -99.334831 14,800 159 224 -1856
2022-11-27 19:57:28 GMT 19.720411 -99.335236 14,825 159 224 -1856
2022-11-27 19:57:25 GMT 19.722834 -99.336182 14,900 159 224 -1664
2022-11-27 19:57:24 GMT 19.724304 -99.336708 14,925 159 225 -1216
2022-11-27 19:57:23 GMT 19.725393 -99.337128 14,950 159 225 -1152
2022-11-27 19:57:22 GMT 19.727600 -99.337990 15,000 159 228 -960
2022-11-27 19:57:20 GMT 19.729584 -99.338776 15,025 159 229 -1024
2022-11-27 19:57:18 GMT 19.730438 -99.339111 15,050 159 229 -1088
2022-11-27 19:57:17 GMT 19.732376 -99.339874 15,075 159 230 -1088
2022-11-27 19:57:14 GMT 19.734657 -99.340775 15,125 159 232 -704
2022-11-27 19:57:13 GMT 19.735495 -99.341125 15,125 159 233 -512
2022-11-27 19:57:11 GMT 19.737591 -99.341927 15,125 159 235 0
2022-11-27 19:57:10 GMT 19.738613 -99.342323 15,125 160 237 192
2022-11-27 19:57:08 GMT 19.740921 -99.343231 15,125 160 240 320
2022-11-27 19:57:06 GMT 19.742897 -99.343971 15,125 160 243 192
2022-11-27 19:57:04 GMT 19.744061 -99.344421 15,125 160 244 128
2022-11-27 19:57:03 GMT 19.746094 -99.345200 15,125 160 246 -256
2022-11-27 19:57:01 GMT 19.749554 -99.346466 15,150 160 248 -832
2022-11-27 19:56:59 GMT 19.750626 -99.346870 15,175 160 249 -768
2022-11-27 19:56:58 GMT 19.752823 -99.347694 15,200 160 250 -704
2022-11-27 19:56:56 GMT 19.753790 -99.348068 15,200 160 251 -704
2022-11-27 19:56:55 GMT 19.754908 -99.348465 15,225 160 252 -704
2022-11-27 19:56:53 GMT 19.757095 -99.349312 15,250 160 253 -704
2022-11-27 19:56:52 GMT 19.758352 -99.349762 15,250 160 254 -640
2022-11-27 19:56:49 GMT 19.761795 -99.351036 15,275 160 257 -512
2022-11-27 19:56:47 GMT 19.764175 -99.351913 15,300 160 259 -320
2022-11-27 19:56:46 GMT 19.765320 -99.352356 15,300 160 260 -128
2022-11-27 19:56:45 GMT 19.767609 -99.353188 15,300 160 263 64
2022-11-27 19:56:43 GMT 19.768967 -99.353706 15,300 160 264 -64
2022-11-27 19:56:42 GMT 19.772141 -99.354858 15,325 160 267 -768
2022-11-27 19:56:40 GMT 19.772141 -99.354858 15,325 160 268 -960
2022-11-27 19:56:38 GMT 19.774841 -99.355843 15,350 160 269 -1024
2022-11-27 19:56:37 GMT 19.777313 -99.356720 15,400 160 270 -1152
2022-11-27 19:56:35 GMT 19.779694 -99.357605 15,450 160 271 -1408
2022-11-27 19:56:32 GMT 19.780884 -99.358055 15,475 160 271 -1536
2022-11-27 19:56:31 GMT 19.781937 -99.358437 15,500 161 271 -1664
2022-11-27 19:56:29 GMT 19.784317 -99.359322 15,550 161 271 -1792
2022-11-27 19:56:28 GMT 19.785540 -99.359749 15,575 161 271 -1728
2022-11-27 19:56:26 GMT 19.788145 -99.360703 15,650 161 271 -1664
2022-11-27 19:56:25 GMT 19.789444 -99.361183 15,675 161 271 -1536
2022-11-27 19:56:23 GMT 19.791733 -99.361969 15,725 161 271 -1408
2022-11-27 19:56:21 GMT 19.794012 -99.362801 15,750 161 272 -1280
2022-11-27 19:56:19 GMT 19.796246 -99.363647 15,800 160 272 -1280
2022-11-27 19:56:17 GMT 19.800714 -99.365242 15,875 161 273 -1344
2022-11-27 19:56:14 GMT 19.802391 -99.365898 15,900 160 275 -1344
2022-11-27 19:56:12 GMT 19.804440 -99.366646 15,950 160 275 -1344
2022-11-27 19:56:11 GMT 19.806244 -99.367264 15,975 160 276 -1280
2022-11-27 19:56:10 GMT 19.806976 -99.367561 16,000 160 277 -1216
2022-11-27 19:56:08 GMT 19.809420 -99.368439 16,050 160 277 -1216
2022-11-27 19:56:06 GMT 19.813568 -99.369965 16,100 160 278 -1216
2022-11-27 19:56:04 GMT 19.814913 -99.370491 16,125 160 278 -1088
2022-11-27 19:56:03 GMT 19.816727 -99.371140 16,150 160 280 -1024
2022-11-27 19:56:01 GMT 19.820526 -99.372566 16,200 160 280 -960
2022-11-27 19:55:59 GMT 19.820526 -99.372566 16,200 160 281 -960
2022-11-27 19:55:58 GMT 19.823135 -99.373497 16,250 160 283 -960
2022-11-27 19:55:56 GMT 19.824270 -99.373932 16,250 160 284 -896
2022-11-27 19:55:54 GMT 19.826878 -99.374886 16,300 160 284 -960
2022-11-27 19:55:53 GMT 19.829224 -99.375755 16,325 160 285 -1088
2022-11-27 19:55:50 GMT 19.832382 -99.376930 16,375 161 287 -1472
2022-11-27 19:55:48 GMT 19.834278 -99.377579 16,425 161 287 -1664
2022-11-27 19:55:47 GMT 19.835676 -99.378082 16,450 161 287 -1792
2022-11-27 19:55:44 GMT 19.839865 -99.379524 16,550 162 287 -1728
2022-11-27 19:55:42 GMT 19.842270 -99.380310 16,600 163 287 -1728
2022-11-27 19:55:40 GMT 19.844101 -99.380806 16,650 164 287 -1600
2022-11-27 19:55:38 GMT 19.846941 -99.381523 16,700 169 289 -1472
2022-11-27 19:55:37 GMT 19.848291 -99.381775 16,725 172 289 -1344
2022-11-27 19:55:36 GMT 19.850945 -99.382172 16,750 173 290 -1280
2022-11-27 19:55:34 GMT 19.852947 -99.382423 16,775 175 291 -1216
2022-11-27 19:55:32 GMT 19.855507 -99.382576 16,825 179 293 -1024
2022-11-27 19:55:29 GMT 19.858658 -99.382568 16,850 183 295 -1024
2022-11-27 19:55:28 GMT 19.860992 -99.382469 16,900 187 296 -1088
2022-11-27 19:55:27 GMT 19.862211 -99.382324 16,900 189 296 -1216
2022-11-27 19:55:24 GMT 19.865479 -99.381836 16,950 193 297 -1536
2022-11-27 19:55:23 GMT 19.867630 -99.381340 17,000 194 297 -1792
2022-11-27 19:55:22 GMT 19.870823 -99.380379 17,075 201 299 -1664
2022-11-27 19:55:19 GMT 19.873444 -99.379379 17,125 205 300 -1664
2022-11-27 19:55:18 GMT 19.874594 -99.378929 17,150 205 300 -1664
2022-11-27 19:55:16 GMT 19.877289 -99.377617 17,200 209 301 -1792
2022-11-27 19:55:15 GMT 19.879852 -99.376144 17,275 212 301 -1920
2022-11-27 19:55:12 GMT 19.881622 -99.374985 17,325 214 300 -1920
2022-11-27 19:55:11 GMT 19.883345 -99.373688 17,350 217 301 -1856
2022-11-27 19:55:10 GMT 19.884462 -99.372787 17,400 221 301 -1728
2022-11-27 19:55:08 GMT 19.886604 -99.370941 17,450 222 301 -1536
2022-11-27 19:55:05 GMT 19.889212 -99.368439 17,500 225 302 -1344
2022-11-27 19:55:04 GMT 19.890564 -99.366920 17,525 229 302 -1152
2022-11-27 19:55:03 GMT 19.892656 -99.364349 17,575 232 303 -1024
2022-11-27 19:55:00 GMT 19.895775 -99.359955 17,600 236 303 -640
2022-11-27 19:54:58 GMT 19.895775 -99.359955 17,600 238 304 -576
2022-11-27 19:54:56 GMT 19.897293 -99.357407 17,625 241 304 -448
2022-11-27 19:54:55 GMT 19.897980 -99.356133 17,625 242 304 -320
2022-11-27 19:54:53 GMT 19.899353 -99.353485 17,650 244 305 -192
2022-11-27 19:54:51 GMT 19.900589 -99.350693 17,650 247 305 -128
2022-11-27 19:54:50 GMT 19.901220 -99.349167 17,650 248 305 -128
2022-11-27 19:54:49 GMT 19.902191 -99.346664 17,650 251 305 -64
2022-11-27 19:54:47 GMT 19.902832 -99.344658 17,650 253 305 -64
2022-11-27 19:54:46 GMT 19.903290 -99.343231 17,650 254 304 -64
2022-11-27 19:54:44 GMT 19.904108 -99.340378 17,650 256 305 -64
2022-11-27 19:54:42 GMT 19.904758 -99.337784 17,650 256 305 0
2022-11-27 19:54:41 GMT 19.905226 -99.335884 17,650 256 305 0
2022-11-27 19:54:40 GMT 19.905533 -99.334557 17,650 256 305 0
2022-11-27 19:54:38 GMT 19.906219 -99.331657 17,650 256 305 64
2022-11-27 19:54:37 GMT 19.906860 -99.328911 17,650 256 305 64
2022-11-27 19:54:34 GMT 19.908716 -99.321198 17,650 256 305 64
2022-11-27 19:54:31 GMT 19.909332 -99.318764 17,650 256 305 64
2022-11-27 19:54:29 GMT 19.909332 -99.318764 17,650 256 305 0
2022-11-27 19:54:27 GMT 19.910067 -99.315559 17,650 256 305 0
2022-11-27 19:54:26 GMT 19.910385 -99.314247 17,650 256 305 0
2022-11-27 19:54:24 GMT 19.911026 -99.311600 17,650 256 305 0
2022-11-27 19:54:23 GMT 19.911463 -99.309860 17,650 256 305 0
2022-11-27 19:54:21 GMT 19.912067 -99.307266 17,650 256 305 64
2022-11-27 19:54:20 GMT 19.912394 -99.305817 17,650 256 305 128
2022-11-27 19:54:18 GMT 19.913269 -99.302032 17,650 257 305 192
2022-11-27 19:54:17 GMT 19.914116 -99.298225 17,625 258 305 192
2022-11-27 19:54:14 GMT 19.914116 -99.298225 17,625 259 304 192
2022-11-27 19:54:12 GMT 19.914917 -99.293205 17,625 263 305 128
2022-11-27 19:54:09 GMT 19.915192 -99.290802 17,625 264 305 64
2022-11-27 19:54:08 GMT 19.915327 -99.289490 17,625 267 306 0
2022-11-27 19:54:06 GMT 19.915560 -99.286346 17,625 268 306 0
2022-11-27 19:54:04 GMT 19.915695 -99.283493 17,625 271 307 -192
2022-11-27 19:54:02 GMT 19.915699 -99.280151 17,625 273 307 -256
2022-11-27 19:54:01 GMT 19.915653 -99.278656 17,650 274 307 -192
2022-11-27 19:53:59 GMT 19.915512 -99.275352 17,650 274 306 -128
2022-11-27 19:53:57 GMT 19.915327 -99.272064 17,650 274 305 -64
2022-11-27 19:53:55 GMT 19.915100 -99.269173 17,675 274 304 -64
2022-11-27 19:53:54 GMT 19.915047 -99.267868 17,675 275 304 0
2022-11-27 19:53:52 GMT 19.914825 -99.264565 17,675 274 304 0
2022-11-27 19:53:51 GMT 19.914734 -99.263092 17,675 274 303 0
2022-11-27 19:53:49 GMT 19.914505 -99.259956 17,675 274 303 -64
2022-11-27 19:53:48 GMT 19.914413 -99.258484 17,675 274 303 -64
2022-11-27 19:53:46 GMT 19.914209 -99.255180 17,675 274 303 -64
2022-11-27 19:53:45 GMT 19.914093 -99.253876 17,675 274 303 -64
2022-11-27 19:53:44 GMT 19.913910 -99.250732 17,675 274 303 -128
2022-11-27 19:53:42 GMT 19.913790 -99.249390 17,675 274 303 -192
2022-11-27 19:53:41 GMT 19.913498 -99.244896 17,675 274 304 -256
2022-11-27 19:53:39 GMT 19.913498 -99.244896 17,675 275 305 -320
2022-11-27 19:53:38 GMT 19.913315 -99.241905 17,700 275 306 -448
2022-11-27 19:53:36 GMT 19.913185 -99.240250 17,700 275 307 -512
2022-11-27 19:53:35 GMT 19.912998 -99.237106 17,725 275 308 -704
2022-11-27 19:53:33 GMT 19.912907 -99.235603 17,725 275 309 -768
2022-11-27 19:53:30 GMT 19.912580 -99.231209 17,775 275 311 -960
2022-11-27 19:53:29 GMT 19.912487 -99.229515 17,800 275 312 -1024
2022-11-27 19:53:27 GMT 19.912308 -99.226601 17,825 275 313 -1088
2022-11-27 19:53:26 GMT 19.912161 -99.224922 17,850 275 313 -1088
2022-11-27 19:53:24 GMT 19.911976 -99.221672 17,900 274 315 -1024
2022-11-27 19:53:23 GMT 19.911835 -99.220123 17,900 275 315 -960
2022-11-27 19:53:21 GMT 19.911650 -99.216881 17,925 275 317 -896
2022-11-27 19:53:20 GMT 19.911509 -99.215332 17,950 275 318 -832
2022-11-27 19:53:16 GMT 19.911184 -99.210487 18,000 275 321 -704
2022-11-27 19:53:14 GMT 19.910952 -99.207191 18,000 275 322 -704
2022-11-27 19:53:12 GMT 19.910797 -99.204483 18,025 275 324 -704
2022-11-27 19:53:10 GMT 19.910532 -99.200653 18,075 275 326 -768
2022-11-27 19:53:07 GMT 19.910206 -99.195709 18,100 275 328 -832
2022-11-27 19:53:06 GMT 19.909882 -99.190704 18,150 274 330 -896
2022-11-27 19:53:04 GMT 19.909882 -99.190704 18,150 274 330 -896
2022-11-27 19:53:03 GMT 19.909790 -99.189232 18,150 274 331 -960
2022-11-27 19:52:59 GMT 19.909332 -99.182556 18,225 274 334 -1024
2022-11-27 19:52:58 GMT 19.909195 -99.180595 18,250 274 336 -960
2022-11-27 19:52:57 GMT 19.909088 -99.178474 18,275 274 336 -960
2022-11-27 19:52:56 GMT 19.908949 -99.176628 18,275 274 336 -960
2022-11-27 19:52:55 GMT 19.908829 -99.175156 18,300 274 337 -960
2022-11-27 19:52:53 GMT 19.908691 -99.172508 18,325 274 339 -960
2022-11-27 19:52:52 GMT 19.908554 -99.170692 18,350 275 340 -960
2022-11-27 19:52:49 GMT 19.908279 -99.166519 18,375 275 341 -960
2022-11-27 19:52:48 GMT 19.908157 -99.164993 18,400 275 342 -960
2022-11-27 19:52:47 GMT 19.908096 -99.163483 18,400 274 344 -960
2022-11-27 19:52:44 GMT 19.907639 -99.156563 18,475 274 346 -960
2022-11-27 19:52:42 GMT 19.907501 -99.154846 18,500 274 347 -960
2022-11-27 19:52:40 GMT 19.907272 -99.151268 18,525 275 351 -960
2022-11-27 19:52:39 GMT 19.907181 -99.149551 18,550 275 351 -960
2022-11-27 19:52:37 GMT 19.906906 -99.145576 18,575 275 352 -1024
2022-11-27 19:52:36 GMT 19.906809 -99.144020 18,600 275 354 -1024
2022-11-27 19:52:34 GMT 19.906586 -99.140724 18,625 275 355 -1024
2022-11-27 19:52:33 GMT 19.906357 -99.137047 18,650 275 357 -960
2022-11-27 19:52:31 GMT 19.906265 -99.135674 18,675 275 359 -896
2022-11-27 19:52:30 GMT 19.905899 -99.130768 18,700 275 360 -832
2022-11-27 19:52:27 GMT 19.905783 -99.128639 18,725 275 362 -768
2022-11-27 19:52:26 GMT 19.905643 -99.126839 18,725 275 363 -704
2022-11-27 19:52:24 GMT 19.905363 -99.122749 18,750 275 364 -704
2022-11-27 19:52:22 GMT 19.905212 -99.120071 18,775 275 366 -704
2022-11-27 19:52:21 GMT 19.905085 -99.118454 18,800 275 367 -704
2022-11-27 19:52:18 GMT 19.904619 -99.111763 18,825 275 371 -768
2022-11-27 19:52:16 GMT 19.904387 -99.108315 18,875 275 374 -832
2022-11-27 19:52:15 GMT 19.904114 -99.104431 18,900 275 375 -896
2022-11-27 19:52:13 GMT 19.903976 -99.102417 18,925 275 376 -960
2022-11-27 19:52:12 GMT 19.903734 -99.098930 18,950 275 377 -1024
2022-11-27 19:52:10 GMT 19.903610 -99.096878 18,975 275 377 -1024
2022-11-27 19:52:08 GMT 19.903381 -99.093391 19,000 275 377 -1088
2022-11-27 19:52:07 GMT 19.903271 -99.091682 19,025 275 377 -1152
2022-11-27 19:52:05 GMT 19.903015 -99.087997 19,050 275 378 -1280
2022-11-27 19:52:04 GMT 19.902897 -99.086342 19,075 275 378 -1408
2022-11-27 19:52:03 GMT 19.902618 -99.082443 19,125 275 378 -1664
2022-11-27 19:51:59 GMT 19.902237 -99.076866 19,225 275 378 -1856
2022-11-27 19:51:58 GMT 19.902151 -99.075203 19,250 274 378 -1856
2022-11-27 19:51:57 GMT 19.901873 -99.071465 19,325 274 379 -1856
2022-11-27 19:51:55 GMT 19.901688 -99.068710 19,350 275 379 -1856
2022-11-27 19:51:52 GMT 19.901220 -99.061623 19,475 275 379 -1792
2022-11-27 19:51:50 GMT 19.901093 -99.059799 19,500 275 379 -1792
2022-11-27 19:51:49 GMT 19.900818 -99.055679 19,575 275 379 -1856
2022-11-27 19:51:47 GMT 19.900726 -99.053810 19,600 275 380 -1920
2022-11-27 19:51:46 GMT 19.900452 -99.050285 19,650 275 381 -1920
2022-11-27 19:51:43 GMT 19.899857 -99.041161 19,800 275 380 -1984
2022-11-27 19:51:40 GMT 19.899733 -99.039452 19,850 275 381 -1920
2022-11-27 19:51:38 GMT 19.899445 -99.035370 19,925 275 381 -1920
2022-11-27 19:51:35 GMT 19.899307 -99.033508 19,950 275 381 -1920
2022-11-27 19:51:33 GMT 19.899033 -99.029190 20,025 275 382 -1920
2022-11-27 19:51:31 GMT 19.898661 -99.023567 20,100 275 382 -1920
2022-11-27 19:51:30 GMT 19.898661 -99.023567 20,125 275 383 -1920
2022-11-27 19:51:28 GMT 19.898428 -99.020172 20,175 275 384 -1920
2022-11-27 19:51:26 GMT 19.898149 -99.016228 20,250 275 386 -1984
2022-11-27 19:51:24 GMT 19.897888 -99.011879 20,325 274 387 -1984
2022-11-27 19:51:23 GMT 19.897776 -99.009987 20,350 274 387 -1984
2022-11-27 19:51:21 GMT 19.897522 -99.006340 20,425 274 389 -1984
2022-11-27 19:51:20 GMT 19.897404 -99.004242 20,450 274 389 -1984
2022-11-27 19:51:19 GMT 19.897156 -99.000450 20,525 274 390 -2048
2022-11-27 19:51:17 GMT 19.897018 -98.998535 20,550 274 391 -2048
2022-11-27 19:51:15 GMT 19.896790 -98.995102 20,625 274 391 -2048
2022-11-27 19:51:13 GMT 19.896378 -98.989120 20,725 274 394 -1984
2022-11-27 19:51:11 GMT 19.896286 -98.987549 20,750 274 394 -1984
2022-11-27 19:51:08 GMT 19.895966 -98.982353 20,825 274 396 -1984
2022-11-27 19:51:07 GMT 19.895727 -98.978630 20,900 274 397 -1920
2022-11-27 19:51:05 GMT 19.895590 -98.976677 20,925 275 398 -1920
2022-11-27 19:51:01 GMT 19.894913 -98.966705 21,100 274 401 -1920
2022-11-27 19:50:59 GMT 19.894821 -98.965141 21,125 274 402 -1920
2022-11-27 19:50:58 GMT 19.894285 -98.957253 21,200 274 403 -1920
2022-11-27 19:50:56 GMT 19.894285 -98.957253 21,250 275 405 -1984
2022-11-27 19:50:53 GMT 19.894007 -98.952660 21,325 275 407 -1984
2022-11-27 19:50:52 GMT 19.893866 -98.950661 21,375 275 407 -1984
2022-11-27 19:50:49 GMT 19.893448 -98.944870 21,475 275 409 -2048
2022-11-27 19:50:47 GMT 19.892990 -98.937675 21,600 275 412 -2112
2022-11-27 19:50:43 GMT 19.892624 -98.932426 21,700 275 413 -2176
2022-11-27 19:50:41 GMT 19.892349 -98.928154 21,775 275 414 -2240
2022-11-27 19:50:40 GMT 19.892212 -98.926147 21,825 274 414 -2304
2022-11-27 19:50:39 GMT 19.891983 -98.921883 21,900 273 416 -2432
2022-11-27 19:50:37 GMT 19.891865 -98.919601 21,950 273 416 -2432
2022-11-27 19:50:35 GMT 19.891663 -98.913048 22,075 271 418 -2560
2022-11-27 19:50:33 GMT 19.891617 -98.910988 22,125 271 419 -2624
2022-11-27 19:50:31 GMT 19.891617 -98.907120 22,225 270 420 -2816
2022-11-27 19:50:30 GMT 19.891617 -98.905060 22,275 270 420 -2816
2022-11-27 19:50:28 GMT 19.891663 -98.900742 22,375 269 420 -2944
2022-11-27 19:50:26 GMT 19.891865 -98.894135 22,525 268 420 -3072
2022-11-27 19:50:24 GMT 19.891911 -98.892082 22,600 268 420 -3136
2022-11-27 19:50:23 GMT 19.892052 -98.890038 22,650 267 420 -3200
2022-11-27 19:50:22 GMT 19.892120 -98.888184 22,700 267 420 -3264
2022-11-27 19:50:19 GMT 19.892563 -98.881996 22,875 266 421 -3392
2022-11-27 19:50:18 GMT 19.892715 -98.880142 22,925 265 421 -3584
2022-11-27 19:50:17 GMT 19.892887 -98.877655 23,000 265 421 -3584
2022-11-27 19:50:15 GMT 19.893311 -98.873375 23,125 264 420 -3776
2022-11-27 19:50:14 GMT 19.893723 -98.869446 23,250 264 420 -3904
2022-11-27 19:50:12 GMT 19.893951 -98.867386 23,325 264 420 -4032
2022-11-27 19:50:10 GMT 19.894455 -98.862877 23,475 264 418 -4416
2022-11-27 19:50:09 GMT 19.894684 -98.860863 23,550 264 418 -4416
2022-11-27 19:50:08 GMT 19.894913 -98.858612 23,625 264 418 -4288
2022-11-27 19:50:06 GMT 19.895370 -98.854538 23,775 264 417 -4224
2022-11-27 19:50:05 GMT 19.895868 -98.850037 23,925 264 417 -4288
2022-11-27 19:50:03 GMT 19.896053 -98.848442 23,975 264 416 -4288
2022-11-27 19:50:02 GMT 19.896473 -98.844543 24,125 264 416 -4352
2022-11-27 19:49:59 GMT 19.896893 -98.840897 24,250 264 415 -4352
2022-11-27 19:49:57 GMT 19.897385 -98.836441 24,400 264 415 -4288
2022-11-27 19:49:55 GMT 19.897797 -98.832619 24,500 264 415 -4224
2022-11-27 19:49:54 GMT 19.898056 -98.830360 24,600 264 415 -4096
2022-11-27 19:49:53 GMT 19.898300 -98.828156 24,675 264 415 -4032
2022-11-27 19:49:51 GMT 19.898708 -98.824272 24,800 264 415 -3840
2022-11-27 19:49:50 GMT 19.898987 -98.821877 24,875 264 415 -3712
2022-11-27 19:49:48 GMT 19.899445 -98.817802 25,000 264 415 -3648
2022-11-27 19:49:46 GMT 19.899902 -98.813583 25,125 264 415 -3648
2022-11-27 19:49:45 GMT 19.900011 -98.812531 25,150 264 415 -3648
2022-11-27 19:49:43 GMT 19.900522 -98.808090 25,300 264 415 -3776
2022-11-27 19:49:42 GMT 19.900726 -98.806084 25,350 264 415 -3840
2022-11-27 19:49:41 GMT 19.901184 -98.802010 25,500 264 414 -4032
2022-11-27 19:49:39 GMT 19.901413 -98.800003 25,550 264 414 -4160
2022-11-27 19:49:37 GMT 19.901917 -98.795784 25,700 264 414 -4352
2022-11-27 19:49:36 GMT 19.902145 -98.793724 25,775 264 412 -4352
2022-11-27 19:49:35 GMT 19.902758 -98.788116 25,925 264 412 -4224
2022-11-27 19:49:33 GMT 19.902758 -98.788116 25,975 264 411 -4160
2022-11-27 19:49:30 GMT 19.903519 -98.781311 26,200 264 410 -3968
2022-11-27 19:49:29 GMT 19.903748 -98.779305 26,250 264 409 -3904
2022-11-27 19:49:27 GMT 19.904108 -98.776329 26,350 264 409 -3648
2022-11-27 19:49:26 GMT 19.904432 -98.773331 26,425 264 409 -3520
2022-11-27 19:49:24 GMT 19.904892 -98.769539 26,550 264 407 -3264
2022-11-27 19:49:22 GMT 19.905317 -98.765938 26,625 264 407 -3008
2022-11-27 19:49:21 GMT 19.905487 -98.764145 26,675 263 408 -2624
2022-11-27 19:49:20 GMT 19.905716 -98.762184 26,700 263 406 -2432
2022-11-27 19:49:17 GMT 19.906296 -98.757401 26,800 263 406 -2048
2022-11-27 19:49:16 GMT 19.906946 -98.752457 26,875 262 406 -1664
2022-11-27 19:49:14 GMT 19.907133 -98.750908 26,900 262 406 -1536
2022-11-27 19:49:13 GMT 19.907959 -98.744972 26,950 262 405 -1088
2022-11-27 19:49:11 GMT 19.907959 -98.744972 26,950 262 404 -1024
2022-11-27 19:49:09 GMT 19.908529 -98.741272 27,000 261 405 -704
2022-11-27 19:49:08 GMT 19.908855 -98.739128 27,000 260 405 -576
2022-11-27 19:49:06 GMT 19.909698 -98.733788 27,025 260 405 -576
2022-11-27 19:49:03 GMT 19.910810 -98.727539 27,050 260 405 -576
2022-11-27 19:49:01 GMT 19.911118 -98.725792 27,075 259 405 -576
2022-11-27 19:49:00 GMT 19.911556 -98.723442 27,075 259 405 -576
2022-11-27 19:48:58 GMT 19.912262 -98.719757 27,100 259 405 -640
2022-11-27 19:48:57 GMT 19.913046 -98.715851 27,125 258 405 -640
2022-11-27 19:48:55 GMT 19.913418 -98.713905 27,125 258 406 -640
2022-11-27 19:48:54 GMT 19.914276 -98.709610 27,150 258 406 -640
2022-11-27 19:48:52 GMT 19.914675 -98.707863 27,150 258 405 -640
2022-11-27 19:48:49 GMT 19.915512 -98.703575 27,175 258 405 -640
2022-11-27 19:48:48 GMT 19.915977 -98.701469 27,200 258 405 -640
2022-11-27 19:48:47 GMT 19.916794 -98.697350 27,225 258 406 -640
2022-11-27 19:48:45 GMT 19.917206 -98.695190 27,225 258 406 -640
2022-11-27 19:48:44 GMT 19.918074 -98.691132 27,250 258 406 -704
2022-11-27 19:48:42 GMT 19.918442 -98.689156 27,275 258 406 -704
2022-11-27 19:48:41 GMT 19.919189 -98.685440 27,275 258 407 -704
2022-11-27 19:48:39 GMT 19.919632 -98.683319 27,300 258 408 -704
2022-11-27 19:48:38 GMT 19.920090 -98.681160 27,300 258 408 -704
2022-11-27 19:48:36 GMT 19.920820 -98.677452 27,375 258 408 -640
2022-11-27 19:48:32 GMT 19.922882 -98.667480 27,400 258 408 -640
2022-11-27 19:48:31 GMT 19.923248 -98.665512 27,400 258 408 -640
2022-11-27 19:48:29 GMT 19.923752 -98.663162 27,400 258 408 -640
2022-11-27 19:48:26 GMT 19.924896 -98.657471 27,450 258 408 -576
2022-11-27 19:48:25 GMT 19.925308 -98.655510 27,450 258 408 -576
2022-11-27 19:48:24 GMT 19.926453 -98.649818 27,475 258 409 -576
2022-11-27 19:48:21 GMT 19.926865 -98.647858 27,500 258 409 -576
2022-11-27 19:48:20 GMT 19.927689 -98.643738 27,500 258 409 -576
2022-11-27 19:48:18 GMT 19.928082 -98.641998 27,525 258 409 -576
2022-11-27 19:48:16 GMT 19.928833 -98.638245 27,525 258 409 -576
2022-11-27 19:48:15 GMT 19.929247 -98.636307 27,550 258 409 -576
2022-11-27 19:48:13 GMT 19.930456 -98.630409 27,600 258 410 -576
2022-11-27 19:48:10 GMT 19.931293 -98.626266 27,600 258 410 -576
2022-11-27 19:48:09 GMT 19.931620 -98.624664 27,600 258 410 -576
2022-11-27 19:48:08 GMT 19.932495 -98.620346 27,625 258 410 -640
2022-11-27 19:48:06 GMT 19.932922 -98.618172 27,625 258 411 -640
2022-11-27 19:48:05 GMT 19.933668 -98.614433 27,650 258 411 -640
2022-11-27 19:48:03 GMT 19.934088 -98.612480 27,675 258 411 -640
2022-11-27 19:48:01 GMT 19.935287 -98.606560 27,700 258 411 -640
2022-11-27 19:48:00 GMT 19.935699 -98.604599 27,700 258 411 -640
2022-11-27 19:47:58 GMT 19.936432 -98.600822 27,725 258 412 -640
2022-11-27 19:47:57 GMT 19.937904 -98.593704 27,775 258 412 -704
2022-11-27 19:47:53 GMT 19.937904 -98.593704 27,775 258 412 -704
2022-11-27 19:47:52 GMT 19.938696 -98.589760 27,800 258 412 -704
2022-11-27 19:47:50 GMT 19.939178 -98.587387 27,800 258 412 -704
2022-11-27 19:47:49 GMT 19.939627 -98.585213 27,825 258 412 -640
2022-11-27 19:47:48 GMT 19.939957 -98.583458 27,825 258 412 -640
2022-11-27 19:47:46 GMT 19.940643 -98.580078 27,850 258 412 -640
2022-11-27 19:47:45 GMT 19.941055 -98.578117 27,850 258 412 -640
2022-11-27 19:47:43 GMT 19.941860 -98.574127 27,875 258 412 -640
2022-11-27 19:47:42 GMT 19.942291 -98.571983 27,900 258 412 -640
2022-11-27 19:47:40 GMT 19.943165 -98.567787 27,925 258 412 -640
2022-11-27 19:47:39 GMT 19.943584 -98.565643 27,925 258 412 -640
2022-11-27 19:47:37 GMT 19.944328 -98.562096 27,950 258 412 -640
2022-11-27 19:47:35 GMT 19.945168 -98.557953 27,975 258 412 -640
2022-11-27 19:47:33 GMT 19.946365 -98.551971 28,000 258 412 -640
2022-11-27 19:47:32 GMT 19.946777 -98.550011 28,000 258 412 -640
2022-11-27 19:47:30 GMT 19.947214 -98.547813 28,025 258 412 -640
2022-11-27 19:47:28 GMT 19.948151 -98.543488 28,050 258 413 -640
2022-11-27 19:47:26 GMT 19.948929 -98.539513 28,075 258 413 -640
2022-11-27 19:47:25 GMT 19.949310 -98.537727 28,075 258 413 -640
2022-11-27 19:47:23 GMT 19.950474 -98.531982 28,100 258 413 -640
2022-11-27 19:47:22 GMT 19.950893 -98.529984 28,125 258 413 -640
2022-11-27 19:47:20 GMT 19.951767 -98.525635 28,150 258 413 -640
2022-11-27 19:47:19 GMT 19.952148 -98.523842 28,150 258 414 -640
2022-11-27 19:47:18 GMT 19.952475 -98.522247 28,150 258 414 -640
2022-11-27 19:47:15 GMT 19.953547 -98.516899 28,175 258 414 -640
2022-11-27 19:47:13 GMT 19.954422 -98.512543 28,200 258 414 -640
2022-11-27 19:47:11 GMT 19.954803 -98.510757 28,225 258 414 -640
2022-11-27 19:47:10 GMT 19.955704 -98.506363 28,250 258 414 -640
2022-11-27 19:47:08 GMT 19.956024 -98.504791 28,250 258 415 -640
2022-11-27 19:47:05 GMT 19.957550 -98.497223 28,300 258 415 -640
2022-11-27 19:47:04 GMT 19.957970 -98.495232 28,300 258 415 -576
2022-11-27 19:47:01 GMT 19.958862 -98.490860 28,325 258 415 -640
2022-11-27 19:46:58 GMT 19.960482 -98.482841 28,375 258 416 -576
2022-11-27 19:46:51 GMT 19.963028 -98.470261 28,425 258 417 -576
2022-11-27 19:46:48 GMT 19.964905 -98.461235 28,475 258 418 -576
2022-11-27 19:46:41 GMT 19.967138 -98.450233 28,525 258 419 -576
2022-11-27 19:46:37 GMT 19.969002 -98.441193 28,575 258 420 -704
2022-11-27 19:46:36 GMT 19.969391 -98.439171 28,575 258 420 -704
2022-11-27 19:46:34 GMT 19.970215 -98.435143 28,600 258 420 -768
2022-11-27 19:46:33 GMT 19.970631 -98.433105 28,625 258 420 -768
2022-11-27 19:46:31 GMT 19.971405 -98.429306 28,650 258 420 -768
2022-11-27 19:46:28 GMT 19.974197 -98.415573 28,725 258 420 -768
2022-11-27 19:46:24 GMT 19.974197 -98.415573 28,725 258 420 -768
2022-11-27 19:46:20 GMT 19.975800 -98.407677 28,775 258 420 -704
2022-11-27 19:46:19 GMT 19.976170 -98.405891 28,800 258 420 -704
2022-11-27 19:46:17 GMT 19.977402 -98.399834 28,850 258 419 -576
2022-11-27 19:46:14 GMT 19.978271 -98.395615 28,850 258 419 -448
2022-11-27 19:46:11 GMT 19.980148 -98.386589 28,875 258 419 -448
2022-11-27 19:46:05 GMT 19.982758 -98.373688 28,950 258 419 -576
2022-11-27 19:45:59 GMT 19.984457 -98.365242 28,975 258 419 -640
2022-11-27 19:45:56 GMT 19.985916 -98.357994 29,025 258 419 -704
2022-11-27 19:45:51 GMT 19.987621 -98.349556 29,075 258 420 -704
2022-11-27 19:45:48 GMT 19.988846 -98.343475 29,100 258 420 -704
2022-11-27 19:45:44 GMT 19.991226 -98.331802 29,175 258 419 -704
2022-11-27 19:45:39 GMT 19.992790 -98.324142 29,225 258 419 -704
2022-11-27 19:45:36 GMT 19.994045 -98.317902 29,250 258 420 -704
2022-11-27 19:45:33 GMT 19.995302 -98.311661 29,300 258 420 -704
2022-11-27 19:45:31 GMT 19.996048 -98.308060 29,325 258 420 -640
2022-11-27 19:45:29 GMT 19.997072 -98.303017 29,375 258 420 -640
2022-11-27 19:45:26 GMT 19.998184 -98.297768 29,375 258 420 -640
2022-11-27 19:45:25 GMT 19.998596 -98.295753 29,375 258 420 -640
2022-11-27 19:45:24 GMT 19.999832 -98.289917 29,425 257 420 -640
2022-11-27 19:45:16 GMT 20.002716 -98.278099 29,475 253 420 -576
2022-11-27 19:45:15 GMT 20.003403 -98.275749 29,500 253 419 -576
2022-11-27 19:45:14 GMT 20.003906 -98.273979 29,500 252 420 -576
2022-11-27 19:45:11 GMT 20.006058 -98.267311 29,525 250 419 -640
2022-11-27 19:45:08 GMT 20.008484 -98.260834 29,575 248 420 -640
2022-11-27 19:45:04 GMT 20.011503 -98.253677 29,600 245 420 -704
2022-11-27 19:45:01 GMT 20.014481 -98.247398 29,650 242 420 -768
2022-11-27 19:44:56 GMT 20.017822 -98.241119 29,675 239 421 -832
2022-11-27 19:44:52 GMT 20.022024 -98.234100 29,750 232 421 -832
2022-11-27 19:44:47 GMT 20.028961 -98.224113 29,825 231 421 -768
2022-11-27 19:44:43 GMT 20.034594 -98.217026 29,900 227 420 -192
2022-11-27 19:44:35 GMT 20.043392 -98.207336 29,925 224 420 0
2022-11-27 19:44:32 GMT 20.048885 -98.202095 29,900 220 420 64
2022-11-27 19:44:29 GMT 20.058941 -98.193604 29,900 217 420 64
2022-11-27 19:44:26 GMT 20.058941 -98.193604 29,900 216 421 0
2022-11-27 19:44:22 GMT 20.064758 -98.189362 29,900 213 423 -320
2022-11-27 19:44:18 GMT 20.072342 -98.184517 29,925 209 425 -768
2022-11-27 19:44:15 GMT 20.075977 -98.182419 29,950 208 426 -576
2022-11-27 19:44:11 GMT 20.083054 -98.178719 30,000 205 426 -192
2022-11-27 19:44:05 GMT 20.094553 -98.173630 30,000 200 426 0
2022-11-27 19:43:57 GMT 20.110748 -98.168137 30,000 195 427 0
2022-11-27 19:43:54 GMT 20.114777 -98.167007 30,000 194 428 0
2022-11-27 19:43:50 GMT 20.122532 -98.165138 30,000 190 427 0
2022-11-27 19:43:44 GMT 20.135426 -98.162643 30,000 190 427 0
2022-11-27 19:43:40 GMT 20.142641 -98.161293 30,000 190 427 0
2022-11-27 19:43:33 GMT 20.155909 -98.158798 30,000 190 427 0
2022-11-27 19:43:29 GMT 20.163345 -98.157394 30,000 190 427 0
2022-11-27 19:43:23 GMT 20.176811 -98.154900 30,000 191 427 0
2022-11-27 19:43:18 GMT 20.184265 -98.153526 30,000 191 427 64
2022-11-27 19:43:11 GMT 20.197153 -98.151054 30,000 191 428 0
2022-11-27 19:43:08 GMT 20.203997 -98.149811 30,000 191 428 0
2022-11-27 19:43:01 GMT 20.217728 -98.147194 30,000 191 428 64
2022-11-27 19:42:58 GMT 20.224573 -98.145912 30,000 191 427 64
2022-11-27 19:42:51 GMT 20.237274 -98.143517 30,000 191 427 64
2022-11-27 19:42:47 GMT 20.245239 -98.141998 30,000 191 426 64
2022-11-27 19:42:41 GMT 20.257532 -98.139671 30,000 191 425 0
2022-11-27 19:42:36 GMT 20.266470 -98.138023 30,000 191 425 0
2022-11-27 19:42:31 GMT 20.278526 -98.135727 30,000 191 425 0
2022-11-27 19:42:26 GMT 20.286667 -98.134201 30,000 191 425 0
2022-11-27 19:42:19 GMT 20.298918 -98.131882 30,000 191 425 0
2022-11-27 19:42:15 GMT 20.307083 -98.130325 30,025 190 426 -64
2022-11-27 19:42:09 GMT 20.319580 -98.127968 30,025 190 428 -64
2022-11-27 19:42:05 GMT 20.327591 -98.126495 30,025 190 429 -128
2022-11-27 19:41:58 GMT 20.347549 -98.122772 30,025 190 432 -64
2022-11-27 19:41:55 GMT 20.347549 -98.122772 30,025 190 435 64
2022-11-27 19:41:49 GMT 20.361511 -98.120171 30,000 190 440 128
2022-11-27 19:41:44 GMT 20.369385 -98.118698 29,975 190 443 64
2022-11-27 19:41:37 GMT 20.384903 -98.115807 30,000 191 449 -64
2022-11-27 19:41:33 GMT 20.390625 -98.114700 30,000 191 449 -64
2022-11-27 19:41:27 GMT 20.404816 -98.112076 30,000 191 448 0
2022-11-27 19:41:23 GMT 20.412180 -98.110657 30,000 191 448 0
2022-11-27 19:41:17 GMT 20.427155 -98.107864 30,000 191 449 0
2022-11-27 19:41:12 GMT 20.433517 -98.106682 30,000 191 449 0
2022-11-27 19:41:07 GMT 20.445835 -98.104362 30,000 191 448 0
2022-11-27 19:41:03 GMT 20.454866 -98.102669 30,000 191 448 0
2022-11-27 19:40:55 GMT 20.469019 -98.099968 30,000 191 449 0
2022-11-27 19:40:51 GMT 20.477005 -98.098495 30,000 191 447 0
2022-11-27 19:40:46 GMT 20.498301 -98.094475 30,000 191 448 0
2022-11-27 19:40:42 GMT 20.498301 -98.094475 30,000 191 448 0
2022-11-27 19:40:35 GMT 20.510357 -98.092178 30,000 191 448 0
2022-11-27 19:40:30 GMT 20.519527 -98.090431 30,000 191 448 0
2022-11-27 19:40:24 GMT 20.531616 -98.088142 30,000 191 447 0
2022-11-27 19:40:21 GMT 20.541639 -98.086288 30,000 191 447 0
2022-11-27 19:40:14 GMT 20.552860 -98.084137 30,000 191 446 0
2022-11-27 19:40:09 GMT 20.562077 -98.082443 30,000 191 446 0
2022-11-27 19:40:03 GMT 20.574921 -98.080002 30,000 191 446 0
2022-11-27 19:40:00 GMT 20.583490 -98.078400 30,000 191 446 0
2022-11-27 19:39:54 GMT 20.595734 -98.076103 30,000 191 446 0
2022-11-27 19:39:48 GMT 20.605545 -98.074265 30,000 191 446 0
2022-11-27 19:39:39 GMT 20.626553 -98.070305 30,000 190 445 0
2022-11-27 19:39:32 GMT 20.640610 -98.067696 30,000 190 445 64
2022-11-27 19:39:28 GMT 20.647522 -98.066368 30,000 190 445 64
2022-11-27 19:39:18 GMT 20.670135 -98.062149 30,000 191 445 0
2022-11-27 19:39:07 GMT 20.690323 -98.058372 30,000 191 445 0
2022-11-27 19:38:57 GMT 20.712301 -98.054230 30,000 191 444 0
2022-11-27 19:38:45 GMT 20.733627 -98.050186 30,000 191 444 0
2022-11-27 19:38:36 GMT 20.755188 -98.046112 30,000 191 444 0
2022-11-27 19:38:24 GMT 20.776108 -98.042191 30,000 190 444 0
2022-11-27 19:38:14 GMT 20.799316 -98.037872 30,000 191 444 0
2022-11-27 19:38:03 GMT 20.818998 -98.034149 30,000 191 444 0
2022-11-27 19:37:54 GMT 20.839527 -98.030258 30,000 191 444 0
2022-11-27 19:37:42 GMT 20.861435 -98.026100 30,000 191 443 0
2022-11-27 19:37:38 GMT 20.872787 -98.023941 30,000 191 443 0
2022-11-27 19:37:33 GMT 20.882950 -98.022034 30,000 191 443 0
2022-11-27 19:37:26 GMT 20.895493 -98.019676 30,000 190 443 0
2022-11-27 19:37:21 GMT 20.904840 -98.017921 30,000 190 443 0
2022-11-27 19:37:12 GMT 20.925110 -98.014084 30,000 191 443 0
2022-11-27 19:37:00 GMT 20.946762 -98.010017 30,000 191 442 64
2022-11-27 19:36:57 GMT 20.954269 -98.008591 30,000 190 443 0
2022-11-27 19:36:51 GMT 20.967827 -98.006035 30,000 190 443 0
2022-11-27 19:36:40 GMT 20.989101 -98.001991 30,000 190 443 0
2022-11-27 19:36:30 GMT 21.031860 -97.994049 30,000 190 443 0
2022-11-27 19:36:18 GMT 21.031860 -97.994049 30,000 190 443 0
2022-11-27 19:36:09 GMT 21.053696 -97.989960 30,000 190 443 64
2022-11-27 19:35:58 GMT 21.074158 -97.986061 30,000 190 443 0
2022-11-27 19:35:53 GMT 21.082901 -97.984413 30,000 191 442 0
2022-11-27 19:35:48 GMT 21.095032 -97.982117 30,000 191 442 0
We lost coverage of the aircraft here for a total of 23 minutes
2022-11-27 19:12:34 GMT 23.901176 -97.461067 30,000 184 450 64
2022-11-27 19:12:34 GMT 23.901176 -97.461067 30,000 194 429 0
We lost coverage of the aircraft here for a total of 7 minutes
2022-11-27 19:05:08 GMT 24.762772 -97.242332 30,000 194 427 0
2022-11-27 19:05:04 GMT 24.768538 -97.240868 30,000 194 427 0
2022-11-27 19:04:54 GMT 24.789392 -97.235588 30,000 194 427 0
2022-11-27 19:04:36 GMT 24.823515 -97.226875 30,000 194 427 0
2022-11-27 19:04:31 GMT 24.831057 -97.224907 30,000 194 427 0
2022-11-27 19:04:21 GMT 24.852448 -97.219444 30,000 194 426 0
2022-11-27 19:04:11 GMT 24.869602 -97.215012 30,000 194 426 0
2022-11-27 19:04:02 GMT 24.889013 -97.210037 30,000 194 426 0
2022-11-27 19:03:50 GMT 24.910172 -97.204590 30,000 194 426 0
2022-11-27 19:03:39 GMT 24.932465 -97.198891 30,000 194 426 0
2022-11-27 19:03:28 GMT 24.952837 -97.193611 30,000 194 425 0
2022-11-27 19:03:19 GMT 24.971100 -97.188927 30,000 194 425 -64
2022-11-27 19:03:02 GMT 25.002556 -97.180862 30,000 194 425 0
2022-11-27 19:02:59 GMT 25.010239 -97.178902 30,000 194 424 0
2022-11-27 19:02:53 GMT 25.020012 -97.176407 30,000 194 424 0
2022-11-27 19:02:45 GMT 25.034775 -97.172600 30,000 194 424 0
2022-11-27 19:02:36 GMT 25.052216 -97.168121 30,000 194 424 0
2022-11-27 19:02:26 GMT 25.072477 -97.162933 30,000 194 424 0
2022-11-27 19:02:14 GMT 25.094868 -97.157181 30,000 194 424 0
2022-11-27 19:02:06 GMT 25.111162 -97.152985 30,000 194 424 0
2022-11-27 19:02:03 GMT 25.115936 -97.151741 30,000 194 424 0
2022-11-27 19:01:53 GMT 25.144958 -97.144264 30,000 194 423 0
2022-11-27 19:01:44 GMT 25.153570 -97.141991 30,000 194 422 0
2022-11-27 19:01:33 GMT 25.172890 -97.137016 30,000 194 423 0
2022-11-27 19:01:23 GMT 25.193115 -97.131752 30,000 194 423 0
2022-11-27 19:01:13 GMT 25.212786 -97.126709 30,000 194 423 64
2022-11-27 19:01:02 GMT 25.232071 -97.121788 30,000 194 423 0
2022-11-27 19:00:55 GMT 25.252075 -97.116646 30,000 194 422 0
2022-11-27 19:00:47 GMT 25.262968 -97.113800 30,000 194 422 0
2022-11-27 19:00:40 GMT 25.273256 -97.111160 30,000 194 422 0
2022-11-27 19:00:31 GMT 25.293694 -97.105980 30,000 193 421 0
2022-11-27 19:00:24 GMT 25.305098 -97.103073 30,000 194 421 64
2022-11-27 19:00:17 GMT 25.317490 -97.099915 30,000 194 421 0
2022-11-27 19:00:09 GMT 25.334660 -97.095512 30,000 194 421 0
2022-11-27 18:59:58 GMT 25.354019 -97.090401 30,000 194 420 -64
2022-11-27 18:59:49 GMT 25.373390 -97.085350 30,000 194 420 0
2022-11-27 18:59:38 GMT 25.393112 -97.080231 30,025 194 420 0
2022-11-27 18:59:27 GMT 25.413610 -97.074936 30,000 194 420 0
2022-11-27 18:59:17 GMT 25.433350 -97.069801 30,025 194 420 0
2022-11-27 18:59:06 GMT 25.453833 -97.064522 30,000 194 421 0
2022-11-27 18:58:56 GMT 25.473221 -97.059532 30,000 194 421 0
2022-11-27 18:58:45 GMT 25.493355 -97.054314 30,000 194 421 0
2022-11-27 18:58:35 GMT 25.514303 -97.048920 30,000 194 421 0
2022-11-27 18:58:25 GMT 25.538086 -97.042847 30,000 194 421 0
2022-11-27 18:58:13 GMT 25.553696 -97.038879 30,000 194 421 0
2022-11-27 18:58:02 GMT 25.574217 -97.033585 30,000 194 421 0
2022-11-27 18:57:53 GMT 25.593954 -97.028450 30,000 194 420 64
2022-11-27 18:57:42 GMT 25.613134 -97.023422 30,000 194 420 0
2022-11-27 18:57:32 GMT 25.632641 -97.018349 30,000 194 420 0
2022-11-27 18:57:20 GMT 25.653305 -97.012993 30,000 194 419 0
2022-11-27 18:57:10 GMT 25.675140 -97.007347 30,000 194 420 0
2022-11-27 18:57:03 GMT 25.686493 -97.004395 30,000 194 420 0
2022-11-27 18:56:58 GMT 25.697891 -97.001442 30,000 194 420 0
2022-11-27 18:56:48 GMT 25.714338 -96.997154 30,000 194 420 0
2022-11-27 18:56:38 GMT 25.733505 -96.992188 30,000 194 420 0
2022-11-27 18:56:32 GMT 25.745087 -96.989189 30,000 194 420 0
2022-11-27 18:56:27 GMT 25.753601 -96.986946 30,000 194 420 0
2022-11-27 18:56:17 GMT 25.772369 -96.982117 30,000 194 420 0
2022-11-27 18:56:05 GMT 25.795294 -96.976166 30,000 194 420 0
2022-11-27 18:56:01 GMT 25.803673 -96.973984 30,000 194 421 0
2022-11-27 18:55:55 GMT 25.814287 -96.971237 30,000 194 421 0
2022-11-27 18:55:45 GMT 25.834257 -96.966072 30,000 194 421 0
2022-11-27 18:55:35 GMT 25.853809 -96.960999 30,000 194 421 0
2022-11-27 18:55:24 GMT 25.873779 -96.955772 30,000 194 421 0
2022-11-27 18:55:14 GMT 25.892761 -96.950821 30,000 194 421 0
2022-11-27 18:55:03 GMT 25.913864 -96.945274 30,000 194 421 0
2022-11-27 18:54:51 GMT 25.935696 -96.939606 30,000 194 421 0
2022-11-27 18:54:42 GMT 25.952820 -96.935173 30,000 194 421 64
2022-11-27 18:54:31 GMT 25.974335 -96.929573 30,000 194 421 0
2022-11-27 18:54:20 GMT 25.997131 -96.923615 30,000 194 421 -64
2022-11-27 18:54:12 GMT 26.010040 -96.920250 30,000 194 421 -64
2022-11-27 18:54:08 GMT 26.018967 -96.917915 30,000 194 421 0
2022-11-27 18:54:00 GMT 26.034714 -96.913719 30,000 194 420 0
2022-11-27 18:53:49 GMT 26.058035 -96.907600 30,000 194 420 0
2022-11-27 18:53:39 GMT 26.079494 -96.901947 30,000 194 420 -64
2022-11-27 18:53:29 GMT 26.094635 -96.898018 30,025 194 420 0
2022-11-27 18:53:16 GMT 26.116644 -96.892235 30,000 194 420 64
2022-11-27 18:53:10 GMT 26.127630 -96.889381 30,000 194 420 0
2022-11-27 18:53:07 GMT 26.135193 -96.887390 30,000 194 420 64
2022-11-27 18:52:55 GMT 26.156296 -96.881897 30,000 194 420 64
2022-11-27 18:52:45 GMT 26.177536 -96.876305 30,000 194 420 0
2022-11-27 18:52:39 GMT 26.186462 -96.873970 30,000 194 420 0
2022-11-27 18:52:35 GMT 26.195362 -96.871628 30,000 194 420 -64
2022-11-27 18:52:25 GMT 26.215101 -96.866402 30,000 194 420 -64
2022-11-27 18:52:15 GMT 26.234070 -96.861427 30,000 194 420 0
2022-11-27 18:52:08 GMT 26.246429 -96.858162 30,000 194 420 0
2022-11-27 18:52:04 GMT 26.253799 -96.856247 30,000 194 420 0
2022-11-27 18:51:53 GMT 26.283005 -96.848579 30,000 194 420 0
2022-11-27 18:51:42 GMT 26.294565 -96.845535 30,000 194 420 0
2022-11-27 18:51:37 GMT 26.305180 -96.842735 30,000 194 420 0
2022-11-27 18:51:31 GMT 26.317520 -96.839508 30,000 194 420 0
2022-11-27 18:51:21 GMT 26.334229 -96.835083 30,000 194 420 0
2022-11-27 18:51:12 GMT 26.354340 -96.829849 30,000 194 421 0
2022-11-27 18:51:05 GMT 26.364767 -96.827103 30,000 194 420 0
2022-11-27 18:51:01 GMT 26.373505 -96.824791 30,000 194 421 -64
2022-11-27 18:50:51 GMT 26.394049 -96.819443 30,000 194 421 0
2022-11-27 18:50:39 GMT 26.415323 -96.813904 30,000 194 421 0
2022-11-27 18:50:30 GMT 26.434734 -96.808777 30,000 194 421 -64
2022-11-27 18:50:19 GMT 26.455263 -96.803391 30,000 194 421 0
2022-11-27 18:50:07 GMT 26.475609 -96.798004 30,000 194 421 64
2022-11-27 18:49:58 GMT 26.494263 -96.793076 30,000 194 422 0
2022-11-27 18:49:46 GMT 26.515177 -96.787598 30,000 194 422 0
2022-11-27 18:49:37 GMT 26.535004 -96.782349 30,000 194 422 64
2022-11-27 18:49:24 GMT 26.557526 -96.776443 30,000 194 422 0
2022-11-27 18:49:16 GMT 26.575417 -96.771751 29,975 194 422 64
2022-11-27 18:49:04 GMT 26.594879 -96.766594 29,975 194 422 0
2022-11-27 18:48:55 GMT 26.615662 -96.761154 29,975 194 422 0
2022-11-27 18:48:46 GMT 26.629761 -96.757423 29,975 194 422 0
2022-11-27 18:48:42 GMT 26.639099 -96.754936 29,975 194 422 0
2022-11-27 18:48:33 GMT 26.655258 -96.750687 29,975 194 422 0
2022-11-27 18:48:22 GMT 26.676947 -96.744972 29,975 194 421 0
2022-11-27 18:48:15 GMT 26.688351 -96.741959 29,975 194 421 0
2022-11-27 18:48:12 GMT 26.695587 -96.740005 29,975 194 421 0
2022-11-27 18:48:00 GMT 26.719894 -96.733582 30,000 194 421 -64
2022-11-27 18:47:50 GMT 26.736254 -96.729233 30,000 194 421 -64
2022-11-27 18:47:44 GMT 26.747818 -96.726173 30,000 194 421 -64
2022-11-27 18:47:41 GMT 26.760361 -96.722855 30,000 194 421 -64
2022-11-27 18:47:29 GMT 26.778616 -96.717979 30,025 194 421 0
2022-11-27 18:47:19 GMT 26.795935 -96.713387 30,025 194 422 -64
2022-11-27 18:47:09 GMT 26.816895 -96.707771 30,025 194 422 0
2022-11-27 18:46:58 GMT 26.835800 -96.702751 30,025 194 423 64
2022-11-27 18:46:55 GMT 26.841509 -96.701241 30,025 194 423 64
2022-11-27 18:46:46 GMT 26.861200 -96.696007 30,025 194 424 64
2022-11-27 18:46:36 GMT 26.878418 -96.691399 30,000 194 424 0
2022-11-27 18:46:27 GMT 26.896866 -96.686531 30,000 194 425 -64
2022-11-27 18:46:15 GMT 26.918970 -96.680641 30,025 194 425 0
2022-11-27 18:46:04 GMT 26.938150 -96.675568 30,025 194 426 0
2022-11-27 18:45:55 GMT 26.958344 -96.670151 30,025 194 426 0
2022-11-27 18:45:43 GMT 26.980087 -96.664345 30,025 194 426 0
2022-11-27 18:45:33 GMT 26.999908 -96.659065 30,025 194 427 0
2022-11-27 18:45:25 GMT 27.014589 -96.655182 30,025 194 427 64
2022-11-27 18:45:22 GMT 27.019197 -96.653915 30,025 194 427 0
2022-11-27 18:45:13 GMT 27.039825 -96.648438 30,000 194 427 64
2022-11-27 18:44:54 GMT 27.074223 -96.639282 30,000 194 428 64
2022-11-27 18:44:50 GMT 27.081161 -96.637451 30,000 194 428 0
2022-11-27 18:44:41 GMT 27.100851 -96.632202 30,000 194 428 0
2022-11-27 18:44:29 GMT 27.121719 -96.626617 30,000 194 428 64
2022-11-27 18:44:23 GMT 27.134460 -96.623222 29,975 194 428 64
2022-11-27 18:44:20 GMT 27.141212 -96.621429 29,975 194 427 64
2022-11-27 18:44:09 GMT 27.161682 -96.615997 29,975 194 427 0
2022-11-27 18:43:58 GMT 27.184645 -96.609810 29,975 194 427 0
2022-11-27 18:43:52 GMT 27.193676 -96.607430 29,975 194 427 -64
2022-11-27 18:43:47 GMT 27.204847 -96.604424 29,975 194 426 -64
2022-11-27 18:43:36 GMT 27.223516 -96.599457 30,000 194 426 -64
2022-11-27 18:43:26 GMT 27.245087 -96.593712 30,000 194 426 -64
2022-11-27 18:43:15 GMT 27.264862 -96.588379 30,000 194 425 0
2022-11-27 18:43:06 GMT 27.283709 -96.583344 30,000 194 425 0
2022-11-27 18:42:54 GMT 27.304825 -96.577652 30,000 194 426 0
2022-11-27 18:42:45 GMT 27.324280 -96.572464 30,000 194 427 0
2022-11-27 18:42:36 GMT 27.340256 -96.568214 30,025 194 427 0
2022-11-27 18:42:33 GMT 27.345840 -96.566711 30,000 194 427 0
2022-11-27 18:42:23 GMT 27.365314 -96.561478 30,025 194 427 0
2022-11-27 18:42:12 GMT 27.387287 -96.555565 30,000 194 427 0
2022-11-27 18:42:01 GMT 27.406420 -96.550385 30,000 194 428 0
2022-11-27 18:41:52 GMT 27.426296 -96.544945 30,000 195 428 0
2022-11-27 18:41:41 GMT 27.445944 -96.538712 30,000 198 426 0
2022-11-27 18:41:31 GMT 27.466053 -96.530846 30,000 202 423 -64
2022-11-27 18:41:24 GMT 27.477877 -96.525459 30,000 203 423 0
2022-11-27 18:41:20 GMT 27.484859 -96.522026 30,000 205 422 0
2022-11-27 18:41:14 GMT 27.494450 -96.517059 30,000 206 421 0
2022-11-27 18:41:10 GMT 27.503906 -96.511780 30,025 208 420 0
2022-11-27 18:41:05 GMT 27.512512 -96.506706 30,025 208 420 0
2022-11-27 18:41:01 GMT 27.518051 -96.503433 30,025 208 420 0
2022-11-27 18:40:57 GMT 27.524918 -96.499344 30,025 208 420 0
2022-11-27 18:40:54 GMT 27.530273 -96.496185 30,025 208 420 0
2022-11-27 18:40:48 GMT 27.541096 -96.489700 30,025 208 420 0
2022-11-27 18:40:44 GMT 27.548870 -96.485100 30,025 208 420 0
2022-11-27 18:40:38 GMT 27.558832 -96.479134 30,000 208 420 0
2022-11-27 18:40:29 GMT 27.571959 -96.471367 30,000 208 420 0
2022-11-27 18:40:26 GMT 27.577267 -96.468201 30,000 208 420 0
2022-11-27 18:40:23 GMT 27.584198 -96.464104 30,000 208 420 0
2022-11-27 18:40:17 GMT 27.595230 -96.457527 30,025 209 421 0
2022-11-27 18:40:11 GMT 27.603521 -96.452568 30,000 209 421 0
2022-11-27 18:40:08 GMT 27.608131 -96.449821 30,000 209 421 0
2022-11-27 18:40:05 GMT 27.613483 -96.446594 30,000 208 420 0
2022-11-27 18:40:02 GMT 27.619720 -96.442909 30,000 209 421 0
2022-11-27 18:39:56 GMT 27.631268 -96.436035 30,000 209 421 0
2022-11-27 18:39:52 GMT 27.638168 -96.431923 30,000 208 420 0
2022-11-27 18:39:44 GMT 27.649748 -96.425049 30,000 208 420 0
2022-11-27 18:39:41 GMT 27.655609 -96.421562 30,000 208 420 0
2022-11-27 18:39:37 GMT 27.662842 -96.417259 30,000 209 421 0
2022-11-27 18:39:34 GMT 27.668369 -96.413956 30,000 209 421 0
2022-11-27 18:39:30 GMT 27.673723 -96.410789 30,000 209 421 0
2022-11-27 18:39:24 GMT 27.687176 -96.402756 30,000 209 421 0
2022-11-27 18:39:20 GMT 27.691505 -96.400169 30,000 209 421 0
2022-11-27 18:39:13 GMT 27.704262 -96.392563 30,000 209 421 0
2022-11-27 18:39:09 GMT 27.709940 -96.389130 30,000 208 420 0
2022-11-27 18:39:03 GMT 27.722855 -96.381447 30,000 209 421 0
2022-11-27 18:39:00 GMT 27.727722 -96.378571 30,000 208 420 0
2022-11-27 18:38:55 GMT 27.735443 -96.373940 30,000 208 420 0
2022-11-27 18:38:52 GMT 27.740479 -96.370964 30,000 208 420 0
2022-11-27 18:38:49 GMT 27.745834 -96.367767 30,000 208 420 0
2022-11-27 18:38:42 GMT 27.758926 -96.359947 30,000 209 421 0
2022-11-27 18:38:38 GMT 27.764778 -96.356438 30,000 209 421 0
2022-11-27 18:38:33 GMT 27.772705 -96.351707 30,000 209 421 0
2022-11-27 18:38:29 GMT 27.780991 -96.346779 30,000 208 420 0
2022-11-27 18:38:21 GMT 27.794952 -96.338440 30,000 208 420 0
2022-11-27 18:38:17 GMT 27.800125 -96.335381 30,000 208 420 0
2022-11-27 18:38:12 GMT 27.808584 -96.330345 30,000 209 420 0
2022-11-27 18:38:08 GMT 27.817848 -96.324745 30,000 209 420 0
2022-11-27 18:38:00 GMT 27.831629 -96.316505 30,000 209 420 0
2022-11-27 18:37:56 GMT 27.836426 -96.313614 30,000 209 420 0
2022-11-27 18:37:51 GMT 27.844849 -96.308578 30,000 209 420 0
2022-11-27 18:37:47 GMT 27.852575 -96.303932 30,000 209 420 0
2022-11-27 18:37:41 GMT 27.862537 -96.297966 30,000 209 420 0
2022-11-27 18:37:36 GMT 27.872175 -96.292206 30,000 209 420 0
2022-11-27 18:37:28 GMT 27.885954 -96.283966 30,000 209 420 0
2022-11-27 18:37:25 GMT 27.889540 -96.281799 30,000 209 420 0
2022-11-27 18:37:20 GMT 27.898682 -96.276352 30,000 209 420 0
2022-11-27 18:37:15 GMT 27.907600 -96.270973 30,000 208 420 0
2022-11-27 18:37:07 GMT 27.926874 -96.259460 30,000 208 420 0
2022-11-27 18:36:55 GMT 27.943586 -96.249443 30,000 209 420 0
2022-11-27 18:36:48 GMT 27.952663 -96.243950 30,000 209 420 0
2022-11-27 18:36:44 GMT 27.960951 -96.238998 30,000 209 420 0
2022-11-27 18:36:38 GMT 27.970734 -96.233101 30,000 209 420 0
2022-11-27 18:36:34 GMT 27.981758 -96.226501 30,000 209 420 0
2022-11-27 18:36:25 GMT 27.994841 -96.218636 30,000 209 420 0
2022-11-27 18:36:21 GMT 28.001219 -96.214813 30,000 209 420 0
2022-11-27 18:36:17 GMT 28.007223 -96.211205 30,000 209 420 0
2022-11-27 18:36:13 GMT 28.013077 -96.207642 30,000 209 420 0
2022-11-27 18:36:09 GMT 28.019606 -96.203720 30,000 209 420 0
2022-11-27 18:36:04 GMT 28.031338 -96.196663 30,000 209 420 0
2022-11-27 18:35:59 GMT 28.037527 -96.192947 30,000 209 420 0
2022-11-27 18:35:53 GMT 28.048515 -96.186325 30,000 209 421 0
2022-11-27 18:35:50 GMT 28.055054 -96.182396 30,000 209 420 0
2022-11-27 18:35:45 GMT 28.062149 -96.178169 30,000 209 420 0
2022-11-27 18:35:42 GMT 28.067274 -96.175072 30,000 209 420 0
2022-11-27 18:35:38 GMT 28.073326 -96.171463 30,000 209 420 0
2022-11-27 18:35:35 GMT 28.079498 -96.167770 30,000 209 420 0
2022-11-27 18:35:32 GMT 28.085175 -96.164337 30,000 209 420 0
2022-11-27 18:35:28 GMT 28.091217 -96.160744 30,000 209 420 0
2022-11-27 18:35:24 GMT 28.097900 -96.156677 30,000 209 420 0
2022-11-27 18:35:20 GMT 28.109079 -96.149971 30,000 209 420 0
2022-11-27 18:35:11 GMT 28.122025 -96.142204 30,025 209 421 -64
2022-11-27 18:35:08 GMT 28.125961 -96.139824 30,000 209 421 -64
2022-11-27 18:35:03 GMT 28.133926 -96.135071 30,000 209 422 -64
2022-11-27 18:34:58 GMT 28.144455 -96.128677 30,000 209 424 0
2022-11-27 18:34:52 GMT 28.153107 -96.123505 30,025 209 424 0
2022-11-27 18:34:49 GMT 28.159727 -96.119492 30,025 209 425 0
2022-11-27 18:34:46 GMT 28.167875 -96.114594 30,000 209 425 64
2022-11-27 18:34:39 GMT 28.176407 -96.109451 30,000 209 426 0
2022-11-27 18:34:33 GMT 28.188263 -96.102325 30,000 209 428 0
2022-11-27 18:34:27 GMT 28.195992 -96.097679 30,000 209 428 0
2022-11-27 18:34:23 GMT 28.204239 -96.092712 30,000 209 428 0
2022-11-27 18:34:18 GMT 28.213310 -96.087288 30,000 209 427 64
2022-11-27 18:34:15 GMT 28.219082 -96.083786 29,975 209 426 64
2022-11-27 18:34:12 GMT 28.222759 -96.081581 29,975 209 427 64
2022-11-27 18:34:07 GMT 28.232023 -96.076035 29,975 209 425 0
2022-11-27 18:34:02 GMT 28.242777 -96.069511 30,000 209 423 0
2022-11-27 18:33:59 GMT 28.245384 -96.067955 30,000 209 421 0
2022-11-27 18:33:55 GMT 28.254507 -96.062462 30,000 209 419 -64
2022-11-27 18:33:52 GMT 28.257935 -96.060387 30,000 209 417 -64
2022-11-27 18:33:48 GMT 28.263885 -96.056740 30,000 209 416 -64
2022-11-27 18:33:44 GMT 28.272217 -96.051727 30,025 209 414 -64
2022-11-27 18:33:38 GMT 28.281326 -96.046234 30,025 209 410 64
2022-11-27 18:33:34 GMT 28.290070 -96.040947 30,000 209 410 0
2022-11-27 18:33:27 GMT 28.299618 -96.035210 30,000 209 410 0
2022-11-27 18:33:24 GMT 28.304626 -96.032181 30,000 209 410 0
2022-11-27 18:33:21 GMT 28.310349 -96.028694 30,000 209 410 0
2022-11-27 18:33:17 GMT 28.321545 -96.021965 30,000 209 409 0
2022-11-27 18:33:14 GMT 28.321545 -96.021965 30,000 209 409 0
2022-11-27 18:33:11 GMT 28.327560 -96.018288 30,000 209 409 0
2022-11-27 18:33:04 GMT 28.339977 -96.010811 30,000 209 409 0
2022-11-27 18:32:59 GMT 28.346170 -96.007042 30,000 209 409 0
2022-11-27 18:32:55 GMT 28.353710 -96.002464 30,000 209 409 0
2022-11-27 18:32:52 GMT 28.360382 -95.998428 30,000 209 409 0
2022-11-27 18:32:42 GMT 28.376148 -95.988892 30,000 209 409 0
2022-11-27 18:32:39 GMT 28.380478 -95.986229 30,000 209 409 0
2022-11-27 18:32:34 GMT 28.387880 -95.981789 30,000 209 410 0
2022-11-27 18:32:30 GMT 28.396408 -95.976616 30,000 209 410 0
2022-11-27 18:32:25 GMT 28.403275 -95.972443 30,000 209 410 0
2022-11-27 18:32:22 GMT 28.410141 -95.968269 30,000 209 410 0
2022-11-27 18:32:19 GMT 28.414183 -95.965843 30,000 209 410 0
2022-11-27 18:32:10 GMT 28.428085 -95.957443 30,000 209 410 64
2022-11-27 18:32:03 GMT 28.442322 -95.948776 30,000 209 409 64
2022-11-27 18:31:59 GMT 28.448212 -95.945274 30,000 209 409 64
2022-11-27 18:31:52 GMT 28.458920 -95.938759 30,000 209 409 0
2022-11-27 18:31:49 GMT 28.463108 -95.936226 30,000 209 409 0
2022-11-27 18:31:45 GMT 28.471985 -95.930824 30,000 209 409 0
2022-11-27 18:31:39 GMT 28.482149 -95.924644 30,000 209 408 0
2022-11-27 18:31:34 GMT 28.489197 -95.920364 30,000 209 408 0
2022-11-27 18:31:26 GMT 28.502352 -95.912369 30,000 209 407 -64
2022-11-27 18:31:20 GMT 28.512177 -95.906418 30,025 209 407 -64
2022-11-27 18:31:17 GMT 28.517990 -95.902878 30,025 209 407 -64
2022-11-27 18:31:14 GMT 28.524324 -95.899010 30,025 209 407 -64
2022-11-27 18:31:08 GMT 28.533325 -95.893585 30,025 209 407 -64
2022-11-27 18:31:05 GMT 28.536484 -95.891632 30,025 209 407 -64
2022-11-27 18:30:59 GMT 28.547836 -95.884766 30,025 209 410 256
2022-11-27 18:30:56 GMT 28.553329 -95.881439 30,000 209 410 128
2022-11-27 18:30:50 GMT 28.564592 -95.874619 29,975 209 412 320
2022-11-27 18:30:47 GMT 28.569672 -95.871559 29,950 209 412 448
2022-11-27 18:30:44 GMT 28.572006 -95.870079 29,950 209 414 512
2022-11-27 18:30:37 GMT 28.584890 -95.862282 29,525 209 423 1728
2022-11-27 18:30:34 GMT 28.589638 -95.859375 29,775 209 415 1408
2022-11-27 18:30:25 GMT 28.606304 -95.849304 29,500 209 417 2048
2022-11-27 18:30:14 GMT 28.624086 -95.838478 29,125 209 421 2048
2022-11-27 18:30:07 GMT 28.635492 -95.831589 28,650 209 423 1728
2022-11-27 18:30:03 GMT 28.643097 -95.826981 28,800 209 423 1664
2022-11-27 18:29:57 GMT 28.652802 -95.821068 28,650 209 424 1536
2022-11-27 18:29:53 GMT 28.660070 -95.816666 28,550 209 424 1536
2022-11-27 18:29:45 GMT 28.673630 -95.808441 28,250 209 425 1088
2022-11-27 18:29:42 GMT 28.679352 -95.804955 28,275 209 425 1216
2022-11-27 18:29:36 GMT 28.690796 -95.797981 28,150 209 424 960
2022-11-27 18:29:33 GMT 28.696337 -95.794586 28,100 209 424 896
2022-11-27 18:29:25 GMT 28.709656 -95.786469 27,950 209 423 1472
2022-11-27 18:29:21 GMT 28.715563 -95.782906 27,875 209 423 1472
2022-11-27 18:29:12 GMT 28.738174 -95.769089 27,575 209 423 1280
2022-11-27 18:29:05 GMT 28.744766 -95.765076 27,475 209 423 1152
2022-11-27 18:28:58 GMT 28.757172 -95.757416 27,375 209 422 704
2022-11-27 18:28:53 GMT 28.764069 -95.753227 27,325 209 420 512
2022-11-27 18:28:50 GMT 28.769703 -95.749725 27,300 209 419 512
2022-11-27 18:28:47 GMT 28.774658 -95.746696 27,275 209 418 704
2022-11-27 18:28:44 GMT 28.780655 -95.743050 27,225 209 417 896
2022-11-27 18:28:40 GMT 28.787247 -95.738983 27,175 209 416 960
2022-11-27 18:28:37 GMT 28.792191 -95.735970 27,125 209 415 960
2022-11-27 18:28:33 GMT 28.798285 -95.732224 27,075 209 414 1024
2022-11-27 18:28:27 GMT 28.816069 -95.721344 26,900 209 414 1344
2022-11-27 18:28:23 GMT 28.816069 -95.721344 26,850 209 414 1472
2022-11-27 18:28:18 GMT 28.829269 -95.713257 25,825 209 412 704
2022-11-27 18:28:15 GMT 28.829269 -95.713257 26,650 209 414 1472
2022-11-27 18:28:11 GMT 28.835340 -95.709549 26,575 209 415 1344
2022-11-27 18:28:06 GMT 28.845520 -95.703331 26,425 209 415 1280
2022-11-27 18:28:02 GMT 28.853989 -95.698151 26,325 209 414 1216
2022-11-27 18:27:58 GMT 28.858709 -95.695282 26,275 209 413 1152
2022-11-27 18:27:54 GMT 28.863785 -95.692207 26,175 209 412 896
2022-11-27 18:27:50 GMT 28.872070 -95.687164 26,150 209 412 704
2022-11-27 18:27:44 GMT 28.889526 -95.676537 26,100 209 406 832
2022-11-27 18:27:39 GMT 28.889526 -95.676537 26,050 209 407 576
2022-11-27 18:27:35 GMT 28.895672 -95.672821 26,025 209 406 704
2022-11-27 18:27:32 GMT 28.901321 -95.669365 25,975 209 405 1088
2022-11-27 18:27:23 GMT 28.917343 -95.659546 25,775 209 403 1152
2022-11-27 18:27:16 GMT 28.929703 -95.651978 25,625 209 403 1152
2022-11-27 18:27:12 GMT 28.932953 -95.649986 25,525 209 401 1216
2022-11-27 18:27:08 GMT 28.939526 -95.645950 25,525 209 401 1216
2022-11-27 18:27:03 GMT 28.950531 -95.639206 25,350 209 400 1280
2022-11-27 18:26:59 GMT 28.956894 -95.635300 25,300 209 400 1280
2022-11-27 18:26:52 GMT 28.967010 -95.629120 25,150 209 400 1344
2022-11-27 18:26:48 GMT 28.973183 -95.625320 25,075 209 399 1408
2022-11-27 18:26:39 GMT 28.987015 -95.616814 24,875 209 398 1472
2022-11-27 18:26:35 GMT 28.993525 -95.612831 24,775 209 397 1536
2022-11-27 18:26:30 GMT 29.001486 -95.607979 24,550 209 397 1472
2022-11-27 18:26:27 GMT 29.007166 -95.604485 24,550 209 397 1408
2022-11-27 18:26:21 GMT 29.018524 -95.597481 24,400 209 397 1344
2022-11-27 18:26:14 GMT 29.028076 -95.591621 24,275 209 396 1344
2022-11-27 18:26:10 GMT 29.035034 -95.587341 24,175 209 395 1408
2022-11-27 18:26:07 GMT 29.040985 -95.583694 24,075 209 395 1408
2022-11-27 18:26:00 GMT 29.052292 -95.576775 23,900 209 395 1472
2022-11-27 18:25:54 GMT 29.060989 -95.571442 23,775 209 394 1472
2022-11-27 18:25:51 GMT 29.064703 -95.569153 23,725 209 394 1472
2022-11-27 18:25:46 GMT 29.074945 -95.562851 23,575 209 393 1408
2022-11-27 18:25:37 GMT 29.086945 -95.555489 23,350 209 391 1536
2022-11-27 18:25:34 GMT 29.091749 -95.552513 23,325 209 391 1536
2022-11-27 18:25:28 GMT 29.102783 -95.545769 22,125 209 391 1536
2022-11-27 18:25:25 GMT 29.108183 -95.542442 23,050 209 391 1536
2022-11-27 18:25:17 GMT 29.124943 -95.532158 22,775 209 389 1600
2022-11-27 18:25:14 GMT 29.124943 -95.532158 22,775 209 389 1600
2022-11-27 18:25:07 GMT 29.135742 -95.525475 22,600 209 389 1536
2022-11-27 18:25:03 GMT 29.141003 -95.522301 22,500 209 389 1536
2022-11-27 18:25:00 GMT 29.147194 -95.518478 22,400 209 388 1536
2022-11-27 18:24:57 GMT 29.153061 -95.514870 22,225 209 388 1536
2022-11-27 18:24:53 GMT 29.157948 -95.511848 22,225 209 387 1536
2022-11-27 18:24:49 GMT 29.163486 -95.508461 22,150 209 387 1536
2022-11-27 18:24:45 GMT 29.169632 -95.504692 22,000 209 386 1536
2022-11-27 18:24:41 GMT 29.179276 -95.498764 21,875 209 386 1472
2022-11-27 18:24:38 GMT 29.183212 -95.496330 21,825 209 385 1472
2022-11-27 18:24:34 GMT 29.190628 -95.491791 21,725 209 384 1472
2022-11-27 18:24:31 GMT 29.192825 -95.490471 21,675 209 385 1472
2022-11-27 18:24:28 GMT 29.196865 -95.487938 20,000 209 370 2304
2022-11-27 18:24:24 GMT 29.206268 -95.482178 21,450 209 383 1728
2022-11-27 18:24:19 GMT 29.212229 -95.478516 21,350 209 383 1792
2022-11-27 18:24:14 GMT 29.221910 -95.472542 21,175 209 383 1728
2022-11-27 18:24:08 GMT 29.228615 -95.468391 20,000 209 372 1088
2022-11-27 18:24:03 GMT 29.237457 -95.462898 20,875 209 376 1088
2022-11-27 18:24:00 GMT 29.242310 -95.459938 20,825 209 379 1280
2022-11-27 18:23:57 GMT 29.244629 -95.458481 20,825 209 379 1280
2022-11-27 18:23:51 GMT 29.254028 -95.452705 20,700 209 377 1152
2022-11-27 18:23:48 GMT 29.260456 -95.448730 20,625 209 376 1088
2022-11-27 18:23:42 GMT 29.269958 -95.442879 20,500 209 369 1728
2022-11-27 18:23:39 GMT 29.274673 -95.439972 20,450 209 371 1280
2022-11-27 18:23:36 GMT 29.276917 -95.438545 20,000 209 370 1408
2022-11-27 18:23:31 GMT 29.287354 -95.432159 20,225 209 369 1920
2022-11-27 18:23:27 GMT 29.291878 -95.429344 20,000 209 370 2304
2022-11-27 18:23:20 GMT 29.303329 -95.422279 19,850 209 370 2048
2022-11-27 18:23:17 GMT 29.306076 -95.420647 19,775 209 370 2048
2022-11-27 18:23:14 GMT 29.311340 -95.417366 19,675 209 370 1856
2022-11-27 18:23:10 GMT 29.320274 -95.411896 19,500 209 369 1728
2022-11-27 18:23:06 GMT 29.323105 -95.410133 19,425 209 369 1728
2022-11-27 18:22:58 GMT 29.335451 -95.402527 19,200 209 366 1600
2022-11-27 18:22:55 GMT 29.341316 -95.398918 18,800 209 362 1600
2022-11-27 18:22:51 GMT 29.345181 -95.396545 19,025 209 366 1600
2022-11-27 18:22:47 GMT 29.353233 -95.391541 18,875 209 365 1472
2022-11-27 18:22:44 GMT 29.356215 -95.389709 18,800 209 362 1600
2022-11-27 18:22:38 GMT 29.371582 -95.380180 18,575 209 362 1664
2022-11-27 18:22:34 GMT 29.371582 -95.380180 17,850 209 354 2304
2022-11-27 18:22:31 GMT 29.376883 -95.376892 18,450 209 359 1536
2022-11-27 18:22:28 GMT 29.379536 -95.375275 18,350 209 358 1472
2022-11-27 18:22:25 GMT 29.384378 -95.372261 18,325 209 358 1472
2022-11-27 18:22:22 GMT 29.387403 -95.370377 18,275 209 358 1472
2022-11-27 18:22:17 GMT 29.395706 -95.365181 18,075 209 355 1728
2022-11-27 18:22:13 GMT 29.403122 -95.360641 17,975 209 354 2048
2022-11-27 18:22:08 GMT 29.410355 -95.356155 17,800 209 353 2432
2022-11-27 18:22:04 GMT 29.415848 -95.352722 17,625 209 355 2688
2022-11-27 18:22:01 GMT 29.417988 -95.351364 17,550 209 355 2752
2022-11-27 18:21:56 GMT 29.425810 -95.346519 15,525 209 356 2496
2022-11-27 18:21:53 GMT 29.430929 -95.343338 17,175 209 357 2432
2022-11-27 18:21:50 GMT 29.436005 -95.340164 17,050 209 357 2368
2022-11-27 18:21:40 GMT 29.449539 -95.331749 16,750 209 357 2112
2022-11-27 18:21:33 GMT 29.463364 -95.323509 16,400 207 357 2368
2022-11-27 18:21:30 GMT 29.463364 -95.323509 16,325 206 358 2496
2022-11-27 18:21:25 GMT 29.473433 -95.318031 16,050 205 359 2880
2022-11-27 18:21:21 GMT 29.478561 -95.315323 15,800 205 361 3008
2022-11-27 18:21:18 GMT 29.484371 -95.312263 15,700 205 361 2880
2022-11-27 18:21:14 GMT 29.488907 -95.309883 15,550 205 362 2624
2022-11-27 18:21:10 GMT 29.495638 -95.306343 15,375 205 362 2496
2022-11-27 18:21:07 GMT 29.499315 -95.304405 15,275 205 362 2496
2022-11-27 18:21:02 GMT 29.507555 -95.300095 15,050 205 362 2240
2022-11-27 18:20:57 GMT 29.520218 -95.293419 14,775 205 361 2048
2022-11-27 18:20:51 GMT 29.529156 -95.288681 14,625 205 359 1984
2022-11-27 18:20:48 GMT 29.529156 -95.288681 14,575 205 358 1984
2022-11-27 18:20:43 GMT 29.536230 -95.284966 14,400 205 357 2176
2022-11-27 18:20:39 GMT 29.542740 -95.281570 14,250 205 356 2240
2022-11-27 18:20:31 GMT 29.554852 -95.275162 13,900 205 354 1984
2022-11-27 18:20:28 GMT 29.564116 -95.270264 13,800 205 354 1920
2022-11-27 18:20:24 GMT 29.564116 -95.270264 13,750 205 353 1856
2022-11-27 18:20:20 GMT 29.572403 -95.265884 13,575 205 351 1920
2022-11-27 18:20:16 GMT 29.576111 -95.263985 13,500 205 349 1920
2022-11-27 18:20:10 GMT 29.586548 -95.258492 13,175 205 347 1856
2022-11-27 18:20:06 GMT 29.590651 -95.256310 13,175 205 346 1856
2022-11-27 18:20:01 GMT 29.598953 -95.251991 12,975 205 343 2048
2022-11-27 18:19:58 GMT 29.603731 -95.249527 12,850 205 342 2368
2022-11-27 18:19:55 GMT 29.606049 -95.248299 12,800 205 342 2496
2022-11-27 18:19:49 GMT 29.615891 -95.243225 12,375 205 342 3264
2022-11-27 18:19:46 GMT 29.620651 -95.240746 12,325 205 342 3328
2022-11-27 18:19:40 GMT 29.632408 -95.234612 11,825 205 344 2816
2022-11-27 18:19:34 GMT 29.636765 -95.232346 11,750 205 344 2624
2022-11-27 18:19:29 GMT 29.644501 -95.228386 11,550 205 343 2048
2022-11-27 18:19:25 GMT 29.651588 -95.224648 11,400 205 340 1664
2022-11-27 18:19:17 GMT 29.662434 -95.218994 11,250 205 334 1024
2022-11-27 18:19:14 GMT 29.666245 -95.217026 11,175 205 330 896
2022-11-27 18:19:08 GMT 29.674026 -95.212906 11,125 205 325 896
2022-11-27 18:19:04 GMT 29.680161 -95.209686 11,050 205 319 896
2022-11-27 18:19:00 GMT 29.685516 -95.206833 11,000 206 311 896
2022-11-27 18:18:57 GMT 29.690784 -95.204018 10,925 206 311 896
2022-11-27 18:18:53 GMT 29.693939 -95.202293 10,900 206 306 896
2022-11-27 18:18:49 GMT 29.703094 -95.197327 10,825 206 298 896
2022-11-27 18:18:46 GMT 29.703094 -95.197327 10,700 206 291 896
2022-11-27 18:18:42 GMT 29.707312 -95.195023 10,750 206 295 896
2022-11-27 18:18:37 GMT 29.715084 -95.190720 10,625 206 284 896
2022-11-27 18:18:32 GMT 29.720438 -95.187813 10,550 206 280 1152
2022-11-27 18:18:23 GMT 29.731567 -95.181847 10,225 205 271 2432
2022-11-27 18:18:20 GMT 29.735367 -95.179893 10,100 205 271 2752
2022-11-27 18:18:15 GMT 29.740828 -95.177040 9,875 205 270 3072
2022-11-27 18:18:12 GMT 29.743713 -95.175529 9,725 205 270 3456
2022-11-27 18:18:09 GMT 29.746445 -95.174141 9,600 205 271 3520
2022-11-27 18:18:04 GMT 29.752487 -95.170914 9,275 205 272 3456
2022-11-27 18:18:01 GMT 29.755726 -95.169228 9,125 205 272 3584
2022-11-27 18:17:54 GMT 29.765223 -95.164116 8,600 206 275 3712
2022-11-27 18:17:51 GMT 29.768005 -95.162575 8,450 207 275 3712
2022-11-27 18:17:43 GMT 29.776672 -95.157707 8,000 207 278 3136
2022-11-27 18:17:39 GMT 29.780491 -95.155548 7,850 207 278 2560
2022-11-27 18:17:33 GMT 29.788776 -95.150970 7,600 205 273 1984
2022-11-27 18:17:29 GMT 29.791803 -95.149406 7,525 204 273 1920
2022-11-27 18:17:21 GMT 29.801859 -95.145912 7,275 190 274 1856
2022-11-27 18:17:18 GMT 29.806183 -95.145409 7,150 183 276 2048
2022-11-27 18:17:12 GMT 29.814606 -95.145828 6,900 169 280 2432
2022-11-27 18:17:09 GMT 29.819408 -95.147095 6,750 163 281 2304
2022-11-27 18:17:01 GMT 29.827415 -95.150917 6,500 149 285 2112
2022-11-27 18:16:57 GMT 29.831909 -95.154228 6,350 143 286 2304
2022-11-27 18:16:51 GMT 29.838913 -95.161194 6,100 131 286 2048
2022-11-27 18:16:48 GMT 29.842266 -95.165512 5,975 128 284 2176
2022-11-27 18:16:40 GMT 29.847107 -95.172821 5,725 126 281 3136
2022-11-27 18:16:37 GMT 29.850645 -95.178329 5,450 126 280 3264
2022-11-27 18:16:30 GMT 29.855347 -95.185707 5,125 125 279 3328
2022-11-27 18:16:25 GMT 29.858643 -95.190987 4,900 125 278 3328
2022-11-27 18:16:19 GMT 29.863167 -95.198204 4,575 125 276 3072
2022-11-27 18:16:15 GMT 29.866985 -95.204453 4,325 125 274 2944
2022-11-27 18:16:09 GMT 29.870911 -95.210846 4,125 124 277 1600
2022-11-27 18:16:04 GMT 29.874292 -95.216408 4,025 125 277 512
2022-11-27 18:15:58 GMT 29.879461 -95.224861 3,975 124 279 320
2022-11-27 18:15:54 GMT 29.882673 -95.230087 3,950 125 279 384
2022-11-27 18:15:47 GMT 29.887421 -95.237732 3,900 128 280 960
2022-11-27 18:15:43 GMT 29.890121 -95.241768 3,850 128 280 960
2022-11-27 18:15:33 GMT 29.898788 -95.254318 3,575 128 273 1728
2022-11-27 18:15:23 GMT 29.906708 -95.265884 3,250 128 261 1920
2022-11-27 18:15:15 GMT 29.911423 -95.272842 3,050 127 253 1920
2022-11-27 18:15:11 GMT 29.914719 -95.277748 2,875 127 249 2560
2022-11-27 18:15:02 GMT 29.922894 -95.289696 2,375 128 243 1920
2022-11-27 18:14:54 GMT 29.926758 -95.295357 2,275 128 232 512
2022-11-27 18:14:50 GMT 29.930296 -95.300522 2,225 128 225 768
2022-11-27 18:14:41 GMT 29.937092 -95.310410 2,025 128 209 1216
2022-11-27 18:14:28 GMT 29.943558 -95.319588 1,800 129 199 1408
2022-11-27 18:14:19 GMT 29.948364 -95.326271 1,600 130 190 1472
2022-11-27 18:14:15 GMT 29.950359 -95.328918 1,500 130 189 2048
2022-11-27 18:14:07 GMT 29.954960 -95.334930 950 131 184 0
2022-11-27 18:14:04 GMT 29.956690 -95.337112 950 137 176 0
2022-11-27 18:14:01 GMT 29.958429 -95.339027 950 144 175 0
2022-11-27 18:13:58 GMT 29.962481 -95.341988 775 149 172 2944
2022-11-27 18:13:55 GMT 29.962481 -95.341988 650 148 173 0
2022-11-27 18:13:52 GMT 29.964510 -95.343399 525 150 173 0
2022-11-27 18:13:49 GMT 29.966600 -95.344772 375 150 172 0
2022-11-27 18:13:43 GMT 29.970831 -95.347443 100 152 175 0
2022-11-27 18:13:35 GMT 29.976299 -95.350777 125 151 146 0
2022-11-27 18:13:29 GMT 29.979731 -95.352867 150 151 124 0
2022-11-27 18:13:08 GMT 29.986410 -95.356979 0 149 20 0
2022-11-27 18:13:05 GMT 29.986650 -95.357132 0 151 16 0
2022-11-27 18:13:02 GMT 29.986839 -95.357246 0 172 12 0
2022-11-27 18:12:59 GMT 29.986990 -95.357300 0 199 12 0
2022-11-27 18:12:56 GMT 29.987150 -95.357246 0 224 11 0
2022-11-27 18:12:48 GMT 29.987400 -95.356880 0 242 12 0
2022-11-27 18:12:43 GMT 29.987539 -95.356583 0 242 11 0
2022-11-27 18:12:41 GMT 29.987591 -95.356461 0 238 10 0
2022-11-27 18:12:38 GMT 29.987659 -95.356339 0 241 10 0
2022-11-27 18:12:35 GMT 29.987730 -95.356201 0 249 7 0
2022-11-27 18:12:17 GMT 29.987539 -95.355507 0 331 12 0
2022-11-27 18:12:14 GMT 29.987410 -95.355438 0 330 12 0
2022-11-27 18:12:08 GMT 29.987141 -95.355270 0 335 12 0
2022-11-27 18:12:05 GMT 29.987000 -95.355171 0 338 13 0
2022-11-27 18:12:02 GMT 29.986820 -95.355080 0 335 12 0
2022-11-27 18:11:59 GMT 29.986670 -95.355026 0 327 12 0
2022-11-27 18:11:56 GMT 29.986509 -95.354919 0 333 11 0
2022-11-27 18:11:50 GMT 29.986271 -95.354752 0 328 13 0
2022-11-27 18:11:45 GMT 29.986019 -95.354568 0 333 10 0
2022-11-27 18:11:39 GMT 29.985750 -95.354424 0 331 11 0
2022-11-27 18:11:36 GMT 29.985609 -95.354347 0 330 13 0
2022-11-27 18:11:33 GMT 29.985470 -95.354233 0 333 13 0
2022-11-27 18:11:27 GMT 29.985149 -95.354080 0 330 16 0
2022-11-27 18:11:24 GMT 29.984961 -95.353928 0 335 12 0
2022-11-27 18:11:21 GMT 29.984810 -95.353851 0 333 12 0
2022-11-27 18:11:15 GMT 29.984510 -95.353683 0 331 12 0
2022-11-27 18:11:09 GMT 29.984230 -95.353500 0 333 14 0
2022-11-27 18:11:06 GMT 29.984070 -95.353409 0 330 14 0
2022-11-27 18:11:03 GMT 29.983910 -95.353287 0 338 11 0
2022-11-27 18:11:00 GMT 29.983761 -95.353218 0 332 12 0
2022-11-27 18:10:54 GMT 29.983450 -95.353050 0 320 14 0
2022-11-27 18:10:52 GMT 29.983370 -95.352913 0 343 12 0
2022-11-27 18:10:38 GMT 29.982771 -95.352592 0 332 7 0
2022-11-27 18:10:35 GMT 29.982670 -95.352524 0 338 8 0
2022-11-27 18:10:32 GMT 29.982559 -95.352493 0 331 8 0
2022-11-27 18:10:26 GMT 29.982389 -95.352364 0 335 8 0
2022-11-27 18:10:23 GMT 29.982269 -95.352303 0 326 9 0
2022-11-27 18:10:20 GMT 29.982170 -95.352242 0 307 9 0
2022-11-27 18:10:17 GMT 29.982071 -95.352150 0 279 9 0
2022-11-27 18:10:14 GMT 29.982019 -95.352020 0 263 9 0
2022-11-27 18:10:11 GMT 29.982010 -95.351860 0 240 9 0
2022-11-27 18:10:08 GMT 29.982059 -95.351707 0 236 11 0
2022-11-27 18:10:05 GMT 29.982149 -95.351608 0 247 11 0
2022-11-27 18:09:50 GMT 29.982479 -95.350883 0 252 9 0
2022-11-27 18:09:38 GMT 29.982550 -95.350433 0 266 7 0
2022-11-27 18:09:24 GMT 29.982580 -95.349960 0 274 5 0
2022-11-27 18:09:18 GMT 29.982559 -95.349739 0 273 5 0
2022-11-27 18:09:15 GMT 29.982559 -95.349670 0 264 5 0
2022-11-27 18:09:12 GMT 29.982531 -95.349609 0 247 7 0
2022-11-27 18:09:09 GMT 29.982611 -95.349487 0 283 4 0
2022-11-27 18:09:06 GMT 29.982571 -95.349419 0 271 6 0
2022-11-27 18:09:03 GMT 29.982580 -95.349319 0 274 5 0
2022-11-27 18:09:00 GMT 29.982580 -95.349243 0 274 9 0
2022-11-27 18:08:57 GMT 29.982559 -95.349098 0 259 4 0
2022-11-27 18:08:54 GMT 29.982580 -95.348953 0 273 4 0
2022-11-27 18:08:51 GMT 29.982599 -95.348862 0 279 5 0
2022-11-27 18:08:48 GMT 29.982559 -95.348793 0 268 6 0
2022-11-27 18:08:45 GMT 29.982559 -95.348732 0 271 6 0
2022-11-27 18:08:42 GMT 29.982540 -95.348618 0 275 6 0
2022-11-27 18:08:39 GMT 29.982580 -95.348549 0 273 7 0
2022-11-27 18:08:36 GMT 29.982559 -95.348427 0 269 5 0
2022-11-27 18:08:33 GMT 29.982571 -95.348351 0 272 8 0
2022-11-27 18:08:30 GMT 29.982550 -95.348228 0 270 7 0
2022-11-27 18:08:27 GMT 29.982571 -95.348122 0 264 8 0
2022-11-27 18:08:25 GMT 29.982550 -95.348038 0 262 8 0
2022-11-27 18:08:22 GMT 29.982590 -95.347931 0 272 8 0
2022-11-27 18:08:19 GMT 29.982580 -95.347801 0 263 8 0
2022-11-27 18:08:16 GMT 29.982580 -95.347641 0 257 8 0
2022-11-27 18:08:13 GMT 29.982620 -95.347519 0 280 9 0
2022-11-27 18:08:10 GMT 29.982599 -95.347366 0 270 9 0
2022-11-27 18:08:07 GMT 29.982580 -95.347237 0 265 13 0
2022-11-27 18:08:04 GMT 29.982571 -95.347099 0 261 13 0
2022-11-27 18:08:01 GMT 29.982620 -95.346878 0 270 9 0
2022-11-27 18:07:58 GMT 29.982630 -95.346703 0 274 9 0
2022-11-27 18:07:55 GMT 29.982620 -95.346519 0 275 9 0
2022-11-27 18:07:52 GMT 29.982580 -95.346283 0 270 9 0
2022-11-27 18:07:49 GMT 29.982571 -95.346069 0 268 9 0
2022-11-27 18:07:46 GMT 29.982599 -95.345863 0 274 9 0
2022-11-27 18:07:43 GMT 29.982559 -95.345657 0 266 9 0
2022-11-27 18:07:41 GMT 29.982559 -95.345528 0 265 9 0
2022-11-27 18:07:38 GMT 29.982611 -95.345390 0 284 10 0
2022-11-27 18:07:35 GMT 29.982559 -95.345222 0 275 10 0
2022-11-27 18:07:32 GMT 29.982479 -95.345047 0 248 12 0
2022-11-27 18:07:29 GMT 29.982550 -95.344849 0 244 9 0
2022-11-27 18:07:26 GMT 29.982599 -95.344727 0 241 9 0
2022-11-27 18:07:23 GMT 29.982651 -95.344597 0 237 9 0
2022-11-27 18:07:20 GMT 29.982719 -95.344490 0 236 9 0
2022-11-27 18:07:17 GMT 29.982780 -95.344383 0 237 11 0
2022-11-27 18:07:14 GMT 29.982861 -95.344208 0 239 13 0
2022-11-27 18:07:02 GMT 29.983009 -95.343529 0 258 10 0
2022-11-27 18:06:59 GMT 29.983080 -95.343369 0 283 11 0
2022-11-27 18:06:56 GMT 29.983000 -95.343178 0 254 13 0
2022-11-27 18:06:53 GMT 29.983070 -95.343010 0 265 15 0
2022-11-27 18:06:50 GMT 29.983070 -95.342796 0 274 15 0
2022-11-27 18:06:47 GMT 29.983009 -95.342552 0 258 12 0
2022-11-27 18:06:41 GMT 29.983061 -95.342163 0 283 11 0
2022-11-27 18:06:38 GMT 29.983009 -95.342003 0 268 11 0
2022-11-27 18:06:35 GMT 29.983009 -95.341812 0 262 8 0
2022-11-27 18:06:32 GMT 29.983061 -95.341629 0 280 8 0
2022-11-27 18:06:30 GMT 29.983030 -95.341507 0 274 8 0
2022-11-27 18:06:27 GMT 29.983030 -95.341331 0 283 8 0
2022-11-27 18:06:24 GMT 29.983021 -95.341171 0 302 12 0
2022-11-27 18:06:18 GMT 29.982920 -95.340919 0 304 12 0
2022-11-27 18:06:15 GMT 29.982821 -95.340759 0 303 12 0
2022-11-27 18:06:10 GMT 29.982679 -95.340523 0 287 11 0
2022-11-27 18:06:07 GMT 29.982660 -95.340332 0 298 10 0
2022-11-27 18:06:04 GMT 29.982559 -95.340202 0 282 11 0
2022-11-27 18:06:01 GMT 29.982519 -95.340042 0 280 12 0
2022-11-27 18:05:58 GMT 29.982460 -95.339859 0 268 11 0
2022-11-27 18:05:55 GMT 29.982479 -95.339699 0 276 11 0
2022-11-27 18:05:52 GMT 29.982441 -95.339531 0 268 11 0
2022-11-27 18:05:46 GMT 29.982450 -95.339188 0 272 11 0
2022-11-27 18:05:34 GMT 29.982460 -95.338516 0 274 11 0
2022-11-27 18:05:31 GMT 29.982450 -95.338348 0 270 10 0
2022-11-27 18:05:28 GMT 29.982450 -95.338211 0 275 11 0
2022-11-27 18:05:25 GMT 29.982450 -95.338043 0 274 8 0
2022-11-27 18:05:16 GMT 29.982420 -95.337578 0 274 12 0
2022-11-27 18:05:13 GMT 29.982420 -95.337379 0 261 10 0
2022-11-27 18:05:11 GMT 29.982410 -95.337303 0 246 10 0
2022-11-27 18:05:08 GMT 29.982420 -95.337128 0 222 10 0
2022-11-27 18:05:03 GMT 29.982611 -95.336929 0 201 9 0
2022-11-27 18:05:01 GMT 29.982679 -95.336906 0 207 9 0
2022-11-27 18:04:58 GMT 29.982771 -95.336807 0 179 10 0
2022-11-27 18:04:55 GMT 29.982920 -95.336830 0 198 10 0
2022-11-27 18:04:52 GMT 29.983030 -95.336761 0 183 10 0
2022-11-27 18:04:49 GMT 29.983191 -95.336746 0 193 6 0

Making use of Plane Finder data

You are free to use the raw flight data, aircraft information and images provided in this report for your own purposes provided the data is correctly attributed to Plane Finder. We ask that you please credit Plane Finder and link to planefinder.net in close proximity to the content.

Optionally one of the following logos (no smaller then 150x24px) can be used and must link to planefinder.net

Embedding the Plane Finder map

You are welcome to embed the Plane Finder playback map on your website to offer visitors a more interactive experience. We suggest using the following HTML code:

<iframe src="//planefinder.net/data/report/UA1088-N1902U-7700-squawk-2022-11-27/map" width="800" height="600" seamless="seamless"></iframe>

Where our data comes from

Plane Finder has a global network of data feeds and antenna radars that receive data broadcast directly from aircraft. The primary technologies used are ADS-B and MLAT. We also show feeds from the FAA and a FLARM glider feed.

Click here to find out more about the Plane Finder network.

How we collect our data